<?xml version="1.0" encoding="UTF-8" standalone="no" ?>
<gpx xmlns="http://www.topografix.com/GPX/1/1" xmlns:xsi="http://www.w3.org/2001/XMLSchema-instance" xsi:schemaLocation="http://www.topografix.com/GPX/1/1 http://www.topografix.com/GPX/1/1/gpx.xsd" version="1.1" creator="VisuGPX - https://www.visugpx.com">
  <metadata>
    <name>sortie a l\'arrache avant la nuit</name>
    <desc><![CDATA[petite sortie improvisé aprés le boulot ]]></desc>
  </metadata>
  <trk>
    <name><![CDATA[Sequence 1]]></name>
    <trkseg>
      <trkpt lat="47.17347" lon="-1.68408">
        <ele>38</ele>
        <time>2014-03-06T16:27:38Z</time>
      </trkpt>
      <trkpt lat="47.17338" lon="-1.68392">
        <ele>37</ele>
        <time>2014-03-06T16:27:41Z</time>
      </trkpt>
      <trkpt lat="47.17328" lon="-1.68346">
        <ele>38</ele>
        <time>2014-03-06T16:27:46Z</time>
      </trkpt>
      <trkpt lat="47.17333" lon="-1.68311">
        <ele>37</ele>
        <time>2014-03-06T16:27:49Z</time>
      </trkpt>
      <trkpt lat="47.17343" lon="-1.6824">
        <ele>36</ele>
        <time>2014-03-06T16:27:54Z</time>
      </trkpt>
      <trkpt lat="47.17354" lon="-1.68181">
        <ele>35</ele>
        <time>2014-03-06T16:27:58Z</time>
      </trkpt>
      <trkpt lat="47.17352" lon="-1.68122">
        <ele>34</ele>
        <time>2014-03-06T16:28:02Z</time>
      </trkpt>
      <trkpt lat="47.17341" lon="-1.68071">
        <ele>33</ele>
        <time>2014-03-06T16:28:06Z</time>
      </trkpt>
      <trkpt lat="47.17327" lon="-1.68021">
        <ele>35</ele>
        <time>2014-03-06T16:28:10Z</time>
      </trkpt>
      <trkpt lat="47.17303" lon="-1.6798">
        <ele>34</ele>
        <time>2014-03-06T16:28:14Z</time>
      </trkpt>
      <trkpt lat="47.17277" lon="-1.6795">
        <ele>34</ele>
        <time>2014-03-06T16:28:18Z</time>
      </trkpt>
      <trkpt lat="47.17253" lon="-1.6792">
        <ele>35</ele>
        <time>2014-03-06T16:28:22Z</time>
      </trkpt>
      <trkpt lat="47.17229" lon="-1.67892">
        <ele>35</ele>
        <time>2014-03-06T16:28:26Z</time>
      </trkpt>
      <trkpt lat="47.17212" lon="-1.6787">
        <ele>38</ele>
        <time>2014-03-06T16:28:29Z</time>
      </trkpt>
      <trkpt lat="47.1718" lon="-1.67837">
        <ele>39</ele>
        <time>2014-03-06T16:28:34Z</time>
      </trkpt>
      <trkpt lat="47.17156" lon="-1.67805">
        <ele>36</ele>
        <time>2014-03-06T16:28:38Z</time>
      </trkpt>
      <trkpt lat="47.17123" lon="-1.67767">
        <ele>34</ele>
        <time>2014-03-06T16:28:43Z</time>
      </trkpt>
      <trkpt lat="47.17106" lon="-1.67742">
        <ele>34</ele>
        <time>2014-03-06T16:28:46Z</time>
      </trkpt>
      <trkpt lat="47.17081" lon="-1.67714">
        <ele>34</ele>
        <time>2014-03-06T16:28:50Z</time>
      </trkpt>
      <trkpt lat="47.17054" lon="-1.67684">
        <ele>33</ele>
        <time>2014-03-06T16:28:54Z</time>
      </trkpt>
      <trkpt lat="47.17031" lon="-1.67654">
        <ele>30</ele>
        <time>2014-03-06T16:28:58Z</time>
      </trkpt>
      <trkpt lat="47.17017" lon="-1.67641">
        <ele>30</ele>
        <time>2014-03-06T16:29:00Z</time>
      </trkpt>
      <trkpt lat="47.16976" lon="-1.67591">
        <ele>31</ele>
        <time>2014-03-06T16:29:07Z</time>
      </trkpt>
      <trkpt lat="47.1695" lon="-1.67565">
        <ele>31</ele>
        <time>2014-03-06T16:29:11Z</time>
      </trkpt>
      <trkpt lat="47.16944" lon="-1.67559">
        <ele>32</ele>
        <time>2014-03-06T16:29:12Z</time>
      </trkpt>
      <trkpt lat="47.16909" lon="-1.67516">
        <ele>33</ele>
        <time>2014-03-06T16:29:18Z</time>
      </trkpt>
      <trkpt lat="47.16897" lon="-1.675">
        <ele>34</ele>
        <time>2014-03-06T16:29:20Z</time>
      </trkpt>
      <trkpt lat="47.16854" lon="-1.67449">
        <ele>33</ele>
        <time>2014-03-06T16:29:27Z</time>
      </trkpt>
      <trkpt lat="47.16833" lon="-1.67427">
        <ele>33</ele>
        <time>2014-03-06T16:29:30Z</time>
      </trkpt>
      <trkpt lat="47.16809" lon="-1.67397">
        <ele>32</ele>
        <time>2014-03-06T16:29:34Z</time>
      </trkpt>
      <trkpt lat="47.16785" lon="-1.67368">
        <ele>32</ele>
        <time>2014-03-06T16:29:38Z</time>
      </trkpt>
      <trkpt lat="47.16758" lon="-1.67342">
        <ele>32</ele>
        <time>2014-03-06T16:29:42Z</time>
      </trkpt>
      <trkpt lat="47.1673" lon="-1.6732">
        <ele>32</ele>
        <time>2014-03-06T16:29:46Z</time>
      </trkpt>
      <trkpt lat="47.16701" lon="-1.67301">
        <ele>31</ele>
        <time>2014-03-06T16:29:50Z</time>
      </trkpt>
      <trkpt lat="47.16671" lon="-1.67288">
        <ele>32</ele>
        <time>2014-03-06T16:29:54Z</time>
      </trkpt>
      <trkpt lat="47.16639" lon="-1.67279">
        <ele>31</ele>
        <time>2014-03-06T16:29:58Z</time>
      </trkpt>
      <trkpt lat="47.16623" lon="-1.67275">
        <ele>30</ele>
        <time>2014-03-06T16:30:00Z</time>
      </trkpt>
      <trkpt lat="47.16572" lon="-1.67261">
        <ele>31</ele>
        <time>2014-03-06T16:30:06Z</time>
      </trkpt>
      <trkpt lat="47.1654" lon="-1.67249">
        <ele>32</ele>
        <time>2014-03-06T16:30:10Z</time>
      </trkpt>
      <trkpt lat="47.16508" lon="-1.6724">
        <ele>32</ele>
        <time>2014-03-06T16:30:14Z</time>
      </trkpt>
      <trkpt lat="47.16477" lon="-1.67228">
        <ele>31</ele>
        <time>2014-03-06T16:30:18Z</time>
      </trkpt>
      <trkpt lat="47.16445" lon="-1.67218">
        <ele>31</ele>
        <time>2014-03-06T16:30:22Z</time>
      </trkpt>
      <trkpt lat="47.16416" lon="-1.67208">
        <ele>32</ele>
        <time>2014-03-06T16:30:26Z</time>
      </trkpt>
      <trkpt lat="47.16401" lon="-1.67203">
        <ele>32</ele>
        <time>2014-03-06T16:30:28Z</time>
      </trkpt>
      <trkpt lat="47.16346" lon="-1.67189">
        <ele>32</ele>
        <time>2014-03-06T16:30:35Z</time>
      </trkpt>
      <trkpt lat="47.16338" lon="-1.67186">
        <ele>32</ele>
        <time>2014-03-06T16:30:36Z</time>
      </trkpt>
      <trkpt lat="47.16287" lon="-1.67168">
        <ele>32</ele>
        <time>2014-03-06T16:30:43Z</time>
      </trkpt>
      <trkpt lat="47.16267" lon="-1.67158">
        <ele>32</ele>
        <time>2014-03-06T16:30:46Z</time>
      </trkpt>
      <trkpt lat="47.16236" lon="-1.67154">
        <ele>30</ele>
        <time>2014-03-06T16:30:50Z</time>
      </trkpt>
      <trkpt lat="47.16206" lon="-1.67147">
        <ele>29</ele>
        <time>2014-03-06T16:30:54Z</time>
      </trkpt>
      <trkpt lat="47.16181" lon="-1.67141">
        <ele>28</ele>
        <time>2014-03-06T16:30:57Z</time>
      </trkpt>
      <trkpt lat="47.16133" lon="-1.67127">
        <ele>25</ele>
        <time>2014-03-06T16:31:03Z</time>
      </trkpt>
      <trkpt lat="47.16098" lon="-1.67116">
        <ele>28</ele>
        <time>2014-03-06T16:31:08Z</time>
      </trkpt>
      <trkpt lat="47.16073" lon="-1.67106">
        <ele>29</ele>
        <time>2014-03-06T16:31:12Z</time>
      </trkpt>
      <trkpt lat="47.16051" lon="-1.67097">
        <ele>29</ele>
        <time>2014-03-06T16:31:15Z</time>
      </trkpt>
      <trkpt lat="47.16024" lon="-1.67089">
        <ele>31</ele>
        <time>2014-03-06T16:31:19Z</time>
      </trkpt>
      <trkpt lat="47.15996" lon="-1.67078">
        <ele>31</ele>
        <time>2014-03-06T16:31:23Z</time>
      </trkpt>
      <trkpt lat="47.15978" lon="-1.6707">
        <ele>33</ele>
        <time>2014-03-06T16:31:26Z</time>
      </trkpt>
      <trkpt lat="47.15941" lon="-1.6706">
        <ele>35</ele>
        <time>2014-03-06T16:31:31Z</time>
      </trkpt>
      <trkpt lat="47.15916" lon="-1.6705">
        <ele>38</ele>
        <time>2014-03-06T16:31:35Z</time>
      </trkpt>
      <trkpt lat="47.15886" lon="-1.67042">
        <ele>38</ele>
        <time>2014-03-06T16:31:39Z</time>
      </trkpt>
      <trkpt lat="47.15854" lon="-1.67032">
        <ele>39</ele>
        <time>2014-03-06T16:31:43Z</time>
      </trkpt>
      <trkpt lat="47.15823" lon="-1.67025">
        <ele>38</ele>
        <time>2014-03-06T16:31:47Z</time>
      </trkpt>
      <trkpt lat="47.15792" lon="-1.67019">
        <ele>35</ele>
        <time>2014-03-06T16:31:51Z</time>
      </trkpt>
      <trkpt lat="47.15762" lon="-1.67009">
        <ele>34</ele>
        <time>2014-03-06T16:31:55Z</time>
      </trkpt>
      <trkpt lat="47.15724" lon="-1.66997">
        <ele>33</ele>
        <time>2014-03-06T16:32:00Z</time>
      </trkpt>
      <trkpt lat="47.15712" lon="-1.6699">
        <ele>34</ele>
        <time>2014-03-06T16:32:02Z</time>
      </trkpt>
      <trkpt lat="47.15674" lon="-1.66978">
        <ele>33</ele>
        <time>2014-03-06T16:32:07Z</time>
      </trkpt>
      <trkpt lat="47.15635" lon="-1.66967">
        <ele>33</ele>
        <time>2014-03-06T16:32:12Z</time>
      </trkpt>
      <trkpt lat="47.15626" lon="-1.66965">
        <ele>32</ele>
        <time>2014-03-06T16:32:13Z</time>
      </trkpt>
      <trkpt lat="47.15578" lon="-1.66955">
        <ele>31</ele>
        <time>2014-03-06T16:32:19Z</time>
      </trkpt>
      <trkpt lat="47.15546" lon="-1.66947">
        <ele>30</ele>
        <time>2014-03-06T16:32:23Z</time>
      </trkpt>
      <trkpt lat="47.15516" lon="-1.66936">
        <ele>29</ele>
        <time>2014-03-06T16:32:27Z</time>
      </trkpt>
      <trkpt lat="47.15502" lon="-1.66927">
        <ele>29</ele>
        <time>2014-03-06T16:32:29Z</time>
      </trkpt>
      <trkpt lat="47.15461" lon="-1.66887">
        <ele>27</ele>
        <time>2014-03-06T16:32:35Z</time>
      </trkpt>
      <trkpt lat="47.1545" lon="-1.66871">
        <ele>28</ele>
        <time>2014-03-06T16:32:37Z</time>
      </trkpt>
      <trkpt lat="47.15427" lon="-1.66815">
        <ele>30</ele>
        <time>2014-03-06T16:32:43Z</time>
      </trkpt>
      <trkpt lat="47.15413" lon="-1.66774">
        <ele>28</ele>
        <time>2014-03-06T16:32:47Z</time>
      </trkpt>
      <trkpt lat="47.15405" lon="-1.6673">
        <ele>28</ele>
        <time>2014-03-06T16:32:51Z</time>
      </trkpt>
      <trkpt lat="47.15394" lon="-1.66673">
        <ele>27</ele>
        <time>2014-03-06T16:32:56Z</time>
      </trkpt>
      <trkpt lat="47.15386" lon="-1.66628">
        <ele>29</ele>
        <time>2014-03-06T16:33:00Z</time>
      </trkpt>
      <trkpt lat="47.15381" lon="-1.66595">
        <ele>30</ele>
        <time>2014-03-06T16:33:03Z</time>
      </trkpt>
      <trkpt lat="47.15372" lon="-1.66554">
        <ele>30</ele>
        <time>2014-03-06T16:33:07Z</time>
      </trkpt>
      <trkpt lat="47.15362" lon="-1.66515">
        <ele>30</ele>
        <time>2014-03-06T16:33:11Z</time>
      </trkpt>
      <trkpt lat="47.15354" lon="-1.66472">
        <ele>30</ele>
        <time>2014-03-06T16:33:15Z</time>
      </trkpt>
      <trkpt lat="47.15343" lon="-1.66421">
        <ele>32</ele>
        <time>2014-03-06T16:33:20Z</time>
      </trkpt>
      <trkpt lat="47.15335" lon="-1.6639">
        <ele>31</ele>
        <time>2014-03-06T16:33:23Z</time>
      </trkpt>
      <trkpt lat="47.15327" lon="-1.66347">
        <ele>33</ele>
        <time>2014-03-06T16:33:27Z</time>
      </trkpt>
      <trkpt lat="47.15317" lon="-1.66303">
        <ele>33</ele>
        <time>2014-03-06T16:33:31Z</time>
      </trkpt>
      <trkpt lat="47.15306" lon="-1.66261">
        <ele>32</ele>
        <time>2014-03-06T16:33:35Z</time>
      </trkpt>
      <trkpt lat="47.15296" lon="-1.66218">
        <ele>33</ele>
        <time>2014-03-06T16:33:39Z</time>
      </trkpt>
      <trkpt lat="47.1529" lon="-1.66188">
        <ele>33</ele>
        <time>2014-03-06T16:33:42Z</time>
      </trkpt>
      <trkpt lat="47.15279" lon="-1.66135">
        <ele>31</ele>
        <time>2014-03-06T16:33:47Z</time>
      </trkpt>
      <trkpt lat="47.1527" lon="-1.66093">
        <ele>30</ele>
        <time>2014-03-06T16:33:51Z</time>
      </trkpt>
      <trkpt lat="47.15261" lon="-1.6605">
        <ele>29</ele>
        <time>2014-03-06T16:33:55Z</time>
      </trkpt>
      <trkpt lat="47.1525" lon="-1.65997">
        <ele>29</ele>
        <time>2014-03-06T16:34:00Z</time>
      </trkpt>
      <trkpt lat="47.15241" lon="-1.65954">
        <ele>27</ele>
        <time>2014-03-06T16:34:04Z</time>
      </trkpt>
      <trkpt lat="47.15239" lon="-1.65933">
        <ele>26</ele>
        <time>2014-03-06T16:34:06Z</time>
      </trkpt>
      <trkpt lat="47.15224" lon="-1.65878">
        <ele>27</ele>
        <time>2014-03-06T16:34:11Z</time>
      </trkpt>
      <trkpt lat="47.15217" lon="-1.65832">
        <ele>26</ele>
        <time>2014-03-06T16:34:15Z</time>
      </trkpt>
      <trkpt lat="47.15207" lon="-1.65779">
        <ele>25</ele>
        <time>2014-03-06T16:34:20Z</time>
      </trkpt>
      <trkpt lat="47.15197" lon="-1.65745">
        <ele>26</ele>
        <time>2014-03-06T16:34:23Z</time>
      </trkpt>
      <trkpt lat="47.15187" lon="-1.65702">
        <ele>25</ele>
        <time>2014-03-06T16:34:27Z</time>
      </trkpt>
      <trkpt lat="47.15177" lon="-1.65658">
        <ele>26</ele>
        <time>2014-03-06T16:34:31Z</time>
      </trkpt>
      <trkpt lat="47.15169" lon="-1.65612">
        <ele>27</ele>
        <time>2014-03-06T16:34:35Z</time>
      </trkpt>
      <trkpt lat="47.1516" lon="-1.65571">
        <ele>27</ele>
        <time>2014-03-06T16:34:39Z</time>
      </trkpt>
      <trkpt lat="47.15155" lon="-1.65535">
        <ele>28</ele>
        <time>2014-03-06T16:34:43Z</time>
      </trkpt>
      <trkpt lat="47.15147" lon="-1.65498">
        <ele>29</ele>
        <time>2014-03-06T16:34:47Z</time>
      </trkpt>
      <trkpt lat="47.15143" lon="-1.65474">
        <ele>31</ele>
        <time>2014-03-06T16:34:50Z</time>
      </trkpt>
      <trkpt lat="47.15127" lon="-1.65418">
        <ele>31</ele>
        <time>2014-03-06T16:34:56Z</time>
      </trkpt>
      <trkpt lat="47.15119" lon="-1.65387">
        <ele>31</ele>
        <time>2014-03-06T16:34:59Z</time>
      </trkpt>
      <trkpt lat="47.15113" lon="-1.65368">
        <ele>30</ele>
        <time>2014-03-06T16:35:01Z</time>
      </trkpt>
      <trkpt lat="47.15095" lon="-1.65321">
        <ele>30</ele>
        <time>2014-03-06T16:35:06Z</time>
      </trkpt>
      <trkpt lat="47.15073" lon="-1.6528">
        <ele>30</ele>
        <time>2014-03-06T16:35:11Z</time>
      </trkpt>
      <trkpt lat="47.15045" lon="-1.65243">
        <ele>29</ele>
        <time>2014-03-06T16:35:16Z</time>
      </trkpt>
      <trkpt lat="47.15019" lon="-1.6522">
        <ele>29</ele>
        <time>2014-03-06T16:35:20Z</time>
      </trkpt>
      <trkpt lat="47.15005" lon="-1.65201">
        <ele>28</ele>
        <time>2014-03-06T16:35:23Z</time>
      </trkpt>
      <trkpt lat="47.14986" lon="-1.65185">
        <ele>25</ele>
        <time>2014-03-06T16:35:26Z</time>
      </trkpt>
      <trkpt lat="47.14955" lon="-1.65158">
        <ele>26</ele>
        <time>2014-03-06T16:35:31Z</time>
      </trkpt>
      <trkpt lat="47.14931" lon="-1.65135">
        <ele>27</ele>
        <time>2014-03-06T16:35:35Z</time>
      </trkpt>
      <trkpt lat="47.14906" lon="-1.65113">
        <ele>28</ele>
        <time>2014-03-06T16:35:39Z</time>
      </trkpt>
      <trkpt lat="47.14882" lon="-1.65092">
        <ele>27</ele>
        <time>2014-03-06T16:35:43Z</time>
      </trkpt>
      <trkpt lat="47.14849" lon="-1.65064">
        <ele>25</ele>
        <time>2014-03-06T16:35:48Z</time>
      </trkpt>
      <trkpt lat="47.14823" lon="-1.65042">
        <ele>22</ele>
        <time>2014-03-06T16:35:52Z</time>
      </trkpt>
      <trkpt lat="47.14798" lon="-1.65017">
        <ele>22</ele>
        <time>2014-03-06T16:35:56Z</time>
      </trkpt>
      <trkpt lat="47.14778" lon="-1.64999">
        <ele>22</ele>
        <time>2014-03-06T16:35:59Z</time>
      </trkpt>
      <trkpt lat="47.14761" lon="-1.64979">
        <ele>23</ele>
        <time>2014-03-06T16:36:02Z</time>
      </trkpt>
      <trkpt lat="47.14733" lon="-1.6495">
        <ele>22</ele>
        <time>2014-03-06T16:36:07Z</time>
      </trkpt>
      <trkpt lat="47.14715" lon="-1.64934">
        <ele>23</ele>
        <time>2014-03-06T16:36:10Z</time>
      </trkpt>
      <trkpt lat="47.14689" lon="-1.6492">
        <ele>23</ele>
        <time>2014-03-06T16:36:16Z</time>
      </trkpt>
      <trkpt lat="47.14684" lon="-1.64902">
        <ele>24</ele>
        <time>2014-03-06T16:36:27Z</time>
      </trkpt>
      <trkpt lat="47.14686" lon="-1.64889">
        <ele>25</ele>
        <time>2014-03-06T16:36:30Z</time>
      </trkpt>
      <trkpt lat="47.1469" lon="-1.64874">
        <ele>25</ele>
        <time>2014-03-06T16:36:33Z</time>
      </trkpt>
      <trkpt lat="47.14701" lon="-1.6484">
        <ele>26</ele>
        <time>2014-03-06T16:36:38Z</time>
      </trkpt>
      <trkpt lat="47.14707" lon="-1.64813">
        <ele>26</ele>
        <time>2014-03-06T16:36:41Z</time>
      </trkpt>
      <trkpt lat="47.14715" lon="-1.64776">
        <ele>25</ele>
        <time>2014-03-06T16:36:45Z</time>
      </trkpt>
      <trkpt lat="47.14724" lon="-1.64744">
        <ele>26</ele>
        <time>2014-03-06T16:36:48Z</time>
      </trkpt>
      <trkpt lat="47.14734" lon="-1.64687">
        <ele>27</ele>
        <time>2014-03-06T16:36:54Z</time>
      </trkpt>
      <trkpt lat="47.14742" lon="-1.6465">
        <ele>28</ele>
        <time>2014-03-06T16:36:58Z</time>
      </trkpt>
      <trkpt lat="47.14749" lon="-1.6461">
        <ele>29</ele>
        <time>2014-03-06T16:37:02Z</time>
      </trkpt>
      <trkpt lat="47.14754" lon="-1.64572">
        <ele>29</ele>
        <time>2014-03-06T16:37:06Z</time>
      </trkpt>
      <trkpt lat="47.14763" lon="-1.64513">
        <ele>29</ele>
        <time>2014-03-06T16:37:12Z</time>
      </trkpt>
      <trkpt lat="47.14767" lon="-1.6448">
        <ele>29</ele>
        <time>2014-03-06T16:37:15Z</time>
      </trkpt>
      <trkpt lat="47.14774" lon="-1.64446">
        <ele>30</ele>
        <time>2014-03-06T16:37:18Z</time>
      </trkpt>
      <trkpt lat="47.14781" lon="-1.64403">
        <ele>31</ele>
        <time>2014-03-06T16:37:23Z</time>
      </trkpt>
      <trkpt lat="47.1479" lon="-1.64367">
        <ele>30</ele>
        <time>2014-03-06T16:37:27Z</time>
      </trkpt>
      <trkpt lat="47.14801" lon="-1.64324">
        <ele>29</ele>
        <time>2014-03-06T16:37:31Z</time>
      </trkpt>
      <trkpt lat="47.14815" lon="-1.64272">
        <ele>28</ele>
        <time>2014-03-06T16:37:36Z</time>
      </trkpt>
      <trkpt lat="47.14823" lon="-1.64241">
        <ele>28</ele>
        <time>2014-03-06T16:37:39Z</time>
      </trkpt>
      <trkpt lat="47.14836" lon="-1.64201">
        <ele>30</ele>
        <time>2014-03-06T16:37:43Z</time>
      </trkpt>
      <trkpt lat="47.14847" lon="-1.64164">
        <ele>30</ele>
        <time>2014-03-06T16:37:47Z</time>
      </trkpt>
      <trkpt lat="47.14862" lon="-1.64123">
        <ele>31</ele>
        <time>2014-03-06T16:37:51Z</time>
      </trkpt>
      <trkpt lat="47.14876" lon="-1.6409">
        <ele>31</ele>
        <time>2014-03-06T16:37:54Z</time>
      </trkpt>
      <trkpt lat="47.149" lon="-1.6404">
        <ele>32</ele>
        <time>2014-03-06T16:37:59Z</time>
      </trkpt>
      <trkpt lat="47.14919" lon="-1.63999">
        <ele>34</ele>
        <time>2014-03-06T16:38:03Z</time>
      </trkpt>
      <trkpt lat="47.1494" lon="-1.63963">
        <ele>35</ele>
        <time>2014-03-06T16:38:07Z</time>
      </trkpt>
      <trkpt lat="47.14962" lon="-1.63928">
        <ele>35</ele>
        <time>2014-03-06T16:38:11Z</time>
      </trkpt>
      <trkpt lat="47.14986" lon="-1.63895">
        <ele>35</ele>
        <time>2014-03-06T16:38:15Z</time>
      </trkpt>
      <trkpt lat="47.15009" lon="-1.63861">
        <ele>34</ele>
        <time>2014-03-06T16:38:19Z</time>
      </trkpt>
      <trkpt lat="47.15037" lon="-1.6382">
        <ele>33</ele>
        <time>2014-03-06T16:38:24Z</time>
      </trkpt>
      <trkpt lat="47.15054" lon="-1.63795">
        <ele>30</ele>
        <time>2014-03-06T16:38:27Z</time>
      </trkpt>
      <trkpt lat="47.15081" lon="-1.63765">
        <ele>30</ele>
        <time>2014-03-06T16:38:31Z</time>
      </trkpt>
      <trkpt lat="47.15106" lon="-1.63736">
        <ele>30</ele>
        <time>2014-03-06T16:38:35Z</time>
      </trkpt>
      <trkpt lat="47.15132" lon="-1.63708">
        <ele>30</ele>
        <time>2014-03-06T16:38:39Z</time>
      </trkpt>
      <trkpt lat="47.15158" lon="-1.63683">
        <ele>27</ele>
        <time>2014-03-06T16:38:43Z</time>
      </trkpt>
      <trkpt lat="47.1518" lon="-1.63663">
        <ele>28</ele>
        <time>2014-03-06T16:38:46Z</time>
      </trkpt>
      <trkpt lat="47.15215" lon="-1.63631">
        <ele>29</ele>
        <time>2014-03-06T16:38:51Z</time>
      </trkpt>
      <trkpt lat="47.15242" lon="-1.63603">
        <ele>30</ele>
        <time>2014-03-06T16:38:55Z</time>
      </trkpt>
      <trkpt lat="47.1527" lon="-1.63578">
        <ele>31</ele>
        <time>2014-03-06T16:38:59Z</time>
      </trkpt>
      <trkpt lat="47.15299" lon="-1.63554">
        <ele>32</ele>
        <time>2014-03-06T16:39:03Z</time>
      </trkpt>
      <trkpt lat="47.1532" lon="-1.63535">
        <ele>34</ele>
        <time>2014-03-06T16:39:06Z</time>
      </trkpt>
      <trkpt lat="47.15364" lon="-1.63497">
        <ele>35</ele>
        <time>2014-03-06T16:39:12Z</time>
      </trkpt>
      <trkpt lat="47.15386" lon="-1.63478">
        <ele>36</ele>
        <time>2014-03-06T16:39:15Z</time>
      </trkpt>
      <trkpt lat="47.15424" lon="-1.63443">
        <ele>36</ele>
        <time>2014-03-06T16:39:20Z</time>
      </trkpt>
      <trkpt lat="47.15445" lon="-1.63425">
        <ele>35</ele>
        <time>2014-03-06T16:39:23Z</time>
      </trkpt>
      <trkpt lat="47.15476" lon="-1.634">
        <ele>34</ele>
        <time>2014-03-06T16:39:27Z</time>
      </trkpt>
      <trkpt lat="47.15508" lon="-1.63373">
        <ele>31</ele>
        <time>2014-03-06T16:39:31Z</time>
      </trkpt>
      <trkpt lat="47.15531" lon="-1.63351">
        <ele>30</ele>
        <time>2014-03-06T16:39:34Z</time>
      </trkpt>
      <trkpt lat="47.15573" lon="-1.63314">
        <ele>32</ele>
        <time>2014-03-06T16:39:39Z</time>
      </trkpt>
      <trkpt lat="47.15606" lon="-1.63282">
        <ele>30</ele>
        <time>2014-03-06T16:39:43Z</time>
      </trkpt>
      <trkpt lat="47.15637" lon="-1.63254">
        <ele>27</ele>
        <time>2014-03-06T16:39:47Z</time>
      </trkpt>
      <trkpt lat="47.15668" lon="-1.63227">
        <ele>29</ele>
        <time>2014-03-06T16:39:51Z</time>
      </trkpt>
      <trkpt lat="47.1569" lon="-1.63208">
        <ele>27</ele>
        <time>2014-03-06T16:39:54Z</time>
      </trkpt>
      <trkpt lat="47.15729" lon="-1.63176">
        <ele>29</ele>
        <time>2014-03-06T16:39:59Z</time>
      </trkpt>
      <trkpt lat="47.1576" lon="-1.63147">
        <ele>26</ele>
        <time>2014-03-06T16:40:03Z</time>
      </trkpt>
      <trkpt lat="47.158" lon="-1.63116">
        <ele>24</ele>
        <time>2014-03-06T16:40:08Z</time>
      </trkpt>
      <trkpt lat="47.15821" lon="-1.63097">
        <ele>22</ele>
        <time>2014-03-06T16:40:11Z</time>
      </trkpt>
      <trkpt lat="47.15854" lon="-1.63067">
        <ele>22</ele>
        <time>2014-03-06T16:40:15Z</time>
      </trkpt>
      <trkpt lat="47.15871" lon="-1.63051">
        <ele>20</ele>
        <time>2014-03-06T16:40:17Z</time>
      </trkpt>
      <trkpt lat="47.15915" lon="-1.63005">
        <ele>21</ele>
        <time>2014-03-06T16:40:23Z</time>
      </trkpt>
      <trkpt lat="47.15946" lon="-1.62982">
        <ele>22</ele>
        <time>2014-03-06T16:40:27Z</time>
      </trkpt>
      <trkpt lat="47.15964" lon="-1.62968">
        <ele>23</ele>
        <time>2014-03-06T16:40:30Z</time>
      </trkpt>
      <trkpt lat="47.16003" lon="-1.62935">
        <ele>24</ele>
        <time>2014-03-06T16:40:36Z</time>
      </trkpt>
      <trkpt lat="47.16023" lon="-1.62916">
        <ele>26</ele>
        <time>2014-03-06T16:40:39Z</time>
      </trkpt>
      <trkpt lat="47.16051" lon="-1.62893">
        <ele>27</ele>
        <time>2014-03-06T16:40:44Z</time>
      </trkpt>
      <trkpt lat="47.16074" lon="-1.62874">
        <ele>29</ele>
        <time>2014-03-06T16:40:48Z</time>
      </trkpt>
      <trkpt lat="47.16103" lon="-1.6285">
        <ele>28</ele>
        <time>2014-03-06T16:40:53Z</time>
      </trkpt>
      <trkpt lat="47.16118" lon="-1.62835">
        <ele>26</ele>
        <time>2014-03-06T16:40:56Z</time>
      </trkpt>
      <trkpt lat="47.16139" lon="-1.62813">
        <ele>24</ele>
        <time>2014-03-06T16:41:00Z</time>
      </trkpt>
      <trkpt lat="47.16161" lon="-1.62794">
        <ele>24</ele>
        <time>2014-03-06T16:41:04Z</time>
      </trkpt>
      <trkpt lat="47.16183" lon="-1.62778">
        <ele>25</ele>
        <time>2014-03-06T16:41:08Z</time>
      </trkpt>
      <trkpt lat="47.16209" lon="-1.62754">
        <ele>26</ele>
        <time>2014-03-06T16:41:13Z</time>
      </trkpt>
      <trkpt lat="47.16224" lon="-1.62741">
        <ele>29</ele>
        <time>2014-03-06T16:41:16Z</time>
      </trkpt>
      <trkpt lat="47.16236" lon="-1.62732">
        <ele>28</ele>
        <time>2014-03-06T16:41:19Z</time>
      </trkpt>
      <trkpt lat="47.16261" lon="-1.62717">
        <ele>29</ele>
        <time>2014-03-06T16:41:24Z</time>
      </trkpt>
      <trkpt lat="47.1628" lon="-1.62706">
        <ele>31</ele>
        <time>2014-03-06T16:41:28Z</time>
      </trkpt>
      <trkpt lat="47.16297" lon="-1.62695">
        <ele>32</ele>
        <time>2014-03-06T16:41:32Z</time>
      </trkpt>
      <trkpt lat="47.16314" lon="-1.62682">
        <ele>32</ele>
        <time>2014-03-06T16:41:36Z</time>
      </trkpt>
      <trkpt lat="47.16335" lon="-1.62691">
        <ele>32</ele>
        <time>2014-03-06T16:41:40Z</time>
      </trkpt>
      <trkpt lat="47.16356" lon="-1.62704">
        <ele>33</ele>
        <time>2014-03-06T16:41:44Z</time>
      </trkpt>
      <trkpt lat="47.16378" lon="-1.62711">
        <ele>34</ele>
        <time>2014-03-06T16:41:48Z</time>
      </trkpt>
      <trkpt lat="47.16402" lon="-1.62717">
        <ele>35</ele>
        <time>2014-03-06T16:41:52Z</time>
      </trkpt>
      <trkpt lat="47.16422" lon="-1.62719">
        <ele>34</ele>
        <time>2014-03-06T16:41:55Z</time>
      </trkpt>
      <trkpt lat="47.16453" lon="-1.62722">
        <ele>32</ele>
        <time>2014-03-06T16:42:00Z</time>
      </trkpt>
      <trkpt lat="47.16477" lon="-1.62729">
        <ele>32</ele>
        <time>2014-03-06T16:42:04Z</time>
      </trkpt>
      <trkpt lat="47.16505" lon="-1.62719">
        <ele>31</ele>
        <time>2014-03-06T16:42:08Z</time>
      </trkpt>
      <trkpt lat="47.16519" lon="-1.62686">
        <ele>33</ele>
        <time>2014-03-06T16:42:12Z</time>
      </trkpt>
      <trkpt lat="47.1652" lon="-1.62643">
        <ele>31</ele>
        <time>2014-03-06T16:42:16Z</time>
      </trkpt>
      <trkpt lat="47.16533" lon="-1.62601">
        <ele>29</ele>
        <time>2014-03-06T16:42:20Z</time>
      </trkpt>
      <trkpt lat="47.16564" lon="-1.62565">
        <ele>28</ele>
        <time>2014-03-06T16:42:24Z</time>
      </trkpt>
      <trkpt lat="47.16587" lon="-1.62539">
        <ele>28</ele>
        <time>2014-03-06T16:42:27Z</time>
      </trkpt>
      <trkpt lat="47.16635" lon="-1.62485">
        <ele>27</ele>
        <time>2014-03-06T16:42:33Z</time>
      </trkpt>
      <trkpt lat="47.16642" lon="-1.62477">
        <ele>26</ele>
        <time>2014-03-06T16:42:34Z</time>
      </trkpt>
      <trkpt lat="47.16684" lon="-1.6244">
        <ele>26</ele>
        <time>2014-03-06T16:42:40Z</time>
      </trkpt>
      <trkpt lat="47.16714" lon="-1.62427">
        <ele>26</ele>
        <time>2014-03-06T16:42:45Z</time>
      </trkpt>
      <trkpt lat="47.16737" lon="-1.62432">
        <ele>27</ele>
        <time>2014-03-06T16:42:48Z</time>
      </trkpt>
      <trkpt lat="47.16767" lon="-1.62443">
        <ele>24</ele>
        <time>2014-03-06T16:42:52Z</time>
      </trkpt>
      <trkpt lat="47.16806" lon="-1.62458">
        <ele>24</ele>
        <time>2014-03-06T16:42:57Z</time>
      </trkpt>
      <trkpt lat="47.16814" lon="-1.6246">
        <ele>24</ele>
        <time>2014-03-06T16:42:58Z</time>
      </trkpt>
      <trkpt lat="47.16871" lon="-1.62477">
        <ele>27</ele>
        <time>2014-03-06T16:43:05Z</time>
      </trkpt>
      <trkpt lat="47.16894" lon="-1.62487">
        <ele>25</ele>
        <time>2014-03-06T16:43:08Z</time>
      </trkpt>
      <trkpt lat="47.16928" lon="-1.62493">
        <ele>25</ele>
        <time>2014-03-06T16:43:12Z</time>
      </trkpt>
      <trkpt lat="47.16961" lon="-1.62492">
        <ele>25</ele>
        <time>2014-03-06T16:43:16Z</time>
      </trkpt>
      <trkpt lat="47.17001" lon="-1.62468">
        <ele>25</ele>
        <time>2014-03-06T16:43:21Z</time>
      </trkpt>
      <trkpt lat="47.17023" lon="-1.62454">
        <ele>24</ele>
        <time>2014-03-06T16:43:24Z</time>
      </trkpt>
      <trkpt lat="47.17052" lon="-1.6244">
        <ele>23</ele>
        <time>2014-03-06T16:43:28Z</time>
      </trkpt>
      <trkpt lat="47.17081" lon="-1.62426">
        <ele>24</ele>
        <time>2014-03-06T16:43:32Z</time>
      </trkpt>
      <trkpt lat="47.17109" lon="-1.62409">
        <ele>24</ele>
        <time>2014-03-06T16:43:36Z</time>
      </trkpt>
      <trkpt lat="47.17137" lon="-1.62394">
        <ele>24</ele>
        <time>2014-03-06T16:43:40Z</time>
      </trkpt>
      <trkpt lat="47.17154" lon="-1.6239">
        <ele>22</ele>
        <time>2014-03-06T16:43:42Z</time>
      </trkpt>
      <trkpt lat="47.17195" lon="-1.62385">
        <ele>25</ele>
        <time>2014-03-06T16:43:47Z</time>
      </trkpt>
      <trkpt lat="47.17235" lon="-1.62375">
        <ele>21</ele>
        <time>2014-03-06T16:43:52Z</time>
      </trkpt>
      <trkpt lat="47.17271" lon="-1.6237">
        <ele>21</ele>
        <time>2014-03-06T16:43:56Z</time>
      </trkpt>
      <trkpt lat="47.17317" lon="-1.62366">
        <ele>23</ele>
        <time>2014-03-06T16:44:02Z</time>
      </trkpt>
      <trkpt lat="47.17338" lon="-1.62362">
        <ele>25</ele>
        <time>2014-03-06T16:44:05Z</time>
      </trkpt>
      <trkpt lat="47.17377" lon="-1.62356">
        <ele>25</ele>
        <time>2014-03-06T16:44:10Z</time>
      </trkpt>
      <trkpt lat="47.17402" lon="-1.62356">
        <ele>25</ele>
        <time>2014-03-06T16:44:13Z</time>
      </trkpt>
      <trkpt lat="47.1744" lon="-1.6236">
        <ele>26</ele>
        <time>2014-03-06T16:44:18Z</time>
      </trkpt>
      <trkpt lat="47.1747" lon="-1.62363">
        <ele>27</ele>
        <time>2014-03-06T16:44:22Z</time>
      </trkpt>
      <trkpt lat="47.17488" lon="-1.62368">
        <ele>26</ele>
        <time>2014-03-06T16:44:25Z</time>
      </trkpt>
      <trkpt lat="47.17513" lon="-1.6236">
        <ele>25</ele>
        <time>2014-03-06T16:44:29Z</time>
      </trkpt>
      <trkpt lat="47.1752" lon="-1.62345">
        <ele>27</ele>
        <time>2014-03-06T16:44:31Z</time>
      </trkpt>
      <trkpt lat="47.1754" lon="-1.62289">
        <ele>30</ele>
        <time>2014-03-06T16:44:38Z</time>
      </trkpt>
      <trkpt lat="47.1755" lon="-1.62263">
        <ele>31</ele>
        <time>2014-03-06T16:44:41Z</time>
      </trkpt>
      <trkpt lat="47.17561" lon="-1.62225">
        <ele>33</ele>
        <time>2014-03-06T16:44:45Z</time>
      </trkpt>
      <trkpt lat="47.17572" lon="-1.62195">
        <ele>34</ele>
        <time>2014-03-06T16:44:49Z</time>
      </trkpt>
      <trkpt lat="47.1758" lon="-1.62166">
        <ele>33</ele>
        <time>2014-03-06T16:44:53Z</time>
      </trkpt>
      <trkpt lat="47.17594" lon="-1.62135">
        <ele>32</ele>
        <time>2014-03-06T16:44:57Z</time>
      </trkpt>
      <trkpt lat="47.17604" lon="-1.62103">
        <ele>32</ele>
        <time>2014-03-06T16:45:01Z</time>
      </trkpt>
      <trkpt lat="47.1762" lon="-1.6207">
        <ele>33</ele>
        <time>2014-03-06T16:45:05Z</time>
      </trkpt>
      <trkpt lat="47.17629" lon="-1.62037">
        <ele>33</ele>
        <time>2014-03-06T16:45:09Z</time>
      </trkpt>
      <trkpt lat="47.17634" lon="-1.6202">
        <ele>34</ele>
        <time>2014-03-06T16:45:11Z</time>
      </trkpt>
      <trkpt lat="47.17645" lon="-1.61969">
        <ele>36</ele>
        <time>2014-03-06T16:45:17Z</time>
      </trkpt>
      <trkpt lat="47.17655" lon="-1.61949">
        <ele>34</ele>
        <time>2014-03-06T16:45:20Z</time>
      </trkpt>
      <trkpt lat="47.1767" lon="-1.61886">
        <ele>32</ele>
        <time>2014-03-06T16:45:26Z</time>
      </trkpt>
      <trkpt lat="47.17678" lon="-1.61848">
        <ele>31</ele>
        <time>2014-03-06T16:45:30Z</time>
      </trkpt>
      <trkpt lat="47.1768" lon="-1.61816">
        <ele>31</ele>
        <time>2014-03-06T16:45:33Z</time>
      </trkpt>
      <trkpt lat="47.17685" lon="-1.61791">
        <ele>33</ele>
        <time>2014-03-06T16:45:36Z</time>
      </trkpt>
      <trkpt lat="47.1769" lon="-1.61749">
        <ele>30</ele>
        <time>2014-03-06T16:45:40Z</time>
      </trkpt>
      <trkpt lat="47.1769" lon="-1.61714">
        <ele>27</ele>
        <time>2014-03-06T16:45:43Z</time>
      </trkpt>
      <trkpt lat="47.17687" lon="-1.61632">
        <ele>27</ele>
        <time>2014-03-06T16:45:50Z</time>
      </trkpt>
      <trkpt lat="47.17687" lon="-1.61593">
        <ele>24</ele>
        <time>2014-03-06T16:45:53Z</time>
      </trkpt>
      <trkpt lat="47.1768" lon="-1.61528">
        <ele>24</ele>
        <time>2014-03-06T16:45:58Z</time>
      </trkpt>
      <trkpt lat="47.17667" lon="-1.61492">
        <ele>23</ele>
        <time>2014-03-06T16:46:01Z</time>
      </trkpt>
      <trkpt lat="47.17632" lon="-1.61429">
        <ele>21</ele>
        <time>2014-03-06T16:46:07Z</time>
      </trkpt>
      <trkpt lat="47.17611" lon="-1.61409">
        <ele>21</ele>
        <time>2014-03-06T16:46:10Z</time>
      </trkpt>
      <trkpt lat="47.17585" lon="-1.61384">
        <ele>21</ele>
        <time>2014-03-06T16:46:14Z</time>
      </trkpt>
      <trkpt lat="47.17562" lon="-1.61359">
        <ele>22</ele>
        <time>2014-03-06T16:46:18Z</time>
      </trkpt>
      <trkpt lat="47.17535" lon="-1.6134">
        <ele>21</ele>
        <time>2014-03-06T16:46:22Z</time>
      </trkpt>
      <trkpt lat="47.17519" lon="-1.61303">
        <ele>21</ele>
        <time>2014-03-06T16:46:26Z</time>
      </trkpt>
      <trkpt lat="47.17505" lon="-1.6126">
        <ele>22</ele>
        <time>2014-03-06T16:46:30Z</time>
      </trkpt>
      <trkpt lat="47.17486" lon="-1.61218">
        <ele>22</ele>
        <time>2014-03-06T16:46:34Z</time>
      </trkpt>
      <trkpt lat="47.17462" lon="-1.61167">
        <ele>22</ele>
        <time>2014-03-06T16:46:39Z</time>
      </trkpt>
      <trkpt lat="47.17458" lon="-1.61156">
        <ele>22</ele>
        <time>2014-03-06T16:46:40Z</time>
      </trkpt>
      <trkpt lat="47.17433" lon="-1.61094">
        <ele>17</ele>
        <time>2014-03-06T16:46:46Z</time>
      </trkpt>
      <trkpt lat="47.17416" lon="-1.61051">
        <ele>17</ele>
        <time>2014-03-06T16:46:51Z</time>
      </trkpt>
      <trkpt lat="47.17409" lon="-1.6104">
        <ele>15</ele>
        <time>2014-03-06T16:46:53Z</time>
      </trkpt>
      <trkpt lat="47.17393" lon="-1.61029">
        <ele>14</ele>
        <time>2014-03-06T16:46:56Z</time>
      </trkpt>
      <trkpt lat="47.17387" lon="-1.60974">
        <ele>15</ele>
        <time>2014-03-06T16:47:02Z</time>
      </trkpt>
      <trkpt lat="47.17388" lon="-1.6094">
        <ele>15</ele>
        <time>2014-03-06T16:47:05Z</time>
      </trkpt>
      <trkpt lat="47.17387" lon="-1.60879">
        <ele>17</ele>
        <time>2014-03-06T16:47:10Z</time>
      </trkpt>
      <trkpt lat="47.17393" lon="-1.60834">
        <ele>17</ele>
        <time>2014-03-06T16:47:14Z</time>
      </trkpt>
      <trkpt lat="47.17401" lon="-1.60797">
        <ele>19</ele>
        <time>2014-03-06T16:47:18Z</time>
      </trkpt>
      <trkpt lat="47.17414" lon="-1.60759">
        <ele>20</ele>
        <time>2014-03-06T16:47:22Z</time>
      </trkpt>
      <trkpt lat="47.17437" lon="-1.60716">
        <ele>22</ele>
        <time>2014-03-06T16:47:27Z</time>
      </trkpt>
      <trkpt lat="47.17453" lon="-1.60694">
        <ele>21</ele>
        <time>2014-03-06T16:47:30Z</time>
      </trkpt>
      <trkpt lat="47.1747" lon="-1.60663">
        <ele>22</ele>
        <time>2014-03-06T16:47:34Z</time>
      </trkpt>
      <trkpt lat="47.1749" lon="-1.60626">
        <ele>23</ele>
        <time>2014-03-06T16:47:39Z</time>
      </trkpt>
      <trkpt lat="47.17507" lon="-1.60597">
        <ele>23</ele>
        <time>2014-03-06T16:47:43Z</time>
      </trkpt>
      <trkpt lat="47.1752" lon="-1.60576">
        <ele>23</ele>
        <time>2014-03-06T16:47:46Z</time>
      </trkpt>
      <trkpt lat="47.17536" lon="-1.60547">
        <ele>22</ele>
        <time>2014-03-06T16:47:50Z</time>
      </trkpt>
      <trkpt lat="47.17554" lon="-1.60517">
        <ele>23</ele>
        <time>2014-03-06T16:47:54Z</time>
      </trkpt>
      <trkpt lat="47.17573" lon="-1.60485">
        <ele>24</ele>
        <time>2014-03-06T16:47:58Z</time>
      </trkpt>
      <trkpt lat="47.17593" lon="-1.60456">
        <ele>25</ele>
        <time>2014-03-06T16:48:02Z</time>
      </trkpt>
      <trkpt lat="47.17615" lon="-1.60424">
        <ele>25</ele>
        <time>2014-03-06T16:48:06Z</time>
      </trkpt>
      <trkpt lat="47.17632" lon="-1.604">
        <ele>29</ele>
        <time>2014-03-06T16:48:09Z</time>
      </trkpt>
      <trkpt lat="47.17658" lon="-1.6036">
        <ele>29</ele>
        <time>2014-03-06T16:48:15Z</time>
      </trkpt>
      <trkpt lat="47.17673" lon="-1.60342">
        <ele>29</ele>
        <time>2014-03-06T16:48:18Z</time>
      </trkpt>
      <trkpt lat="47.17693" lon="-1.60313">
        <ele>29</ele>
        <time>2014-03-06T16:48:23Z</time>
      </trkpt>
      <trkpt lat="47.17704" lon="-1.60299">
        <ele>28</ele>
        <time>2014-03-06T16:48:25Z</time>
      </trkpt>
      <trkpt lat="47.17731" lon="-1.60242">
        <ele>27</ele>
        <time>2014-03-06T16:48:32Z</time>
      </trkpt>
      <trkpt lat="47.17734" lon="-1.60224">
        <ele>26</ele>
        <time>2014-03-06T16:48:34Z</time>
      </trkpt>
      <trkpt lat="47.17742" lon="-1.60194">
        <ele>25</ele>
        <time>2014-03-06T16:48:37Z</time>
      </trkpt>
      <trkpt lat="47.1777" lon="-1.60134">
        <ele>21</ele>
        <time>2014-03-06T16:48:43Z</time>
      </trkpt>
      <trkpt lat="47.17797" lon="-1.60086">
        <ele>21</ele>
        <time>2014-03-06T16:48:48Z</time>
      </trkpt>
      <trkpt lat="47.17808" lon="-1.60065">
        <ele>19</ele>
        <time>2014-03-06T16:48:50Z</time>
      </trkpt>
      <trkpt lat="47.17844" lon="-1.60008">
        <ele>18</ele>
        <time>2014-03-06T16:48:56Z</time>
      </trkpt>
      <trkpt lat="47.1786" lon="-1.59979">
        <ele>17</ele>
        <time>2014-03-06T16:48:59Z</time>
      </trkpt>
      <trkpt lat="47.17872" lon="-1.59957">
        <ele>16</ele>
        <time>2014-03-06T16:49:01Z</time>
      </trkpt>
      <trkpt lat="47.1789" lon="-1.59936">
        <ele>18</ele>
        <time>2014-03-06T16:49:06Z</time>
      </trkpt>
      <trkpt lat="47.17906" lon="-1.59907">
        <ele>17</ele>
        <time>2014-03-06T16:49:11Z</time>
      </trkpt>
      <trkpt lat="47.17928" lon="-1.59885">
        <ele>16</ele>
        <time>2014-03-06T16:49:15Z</time>
      </trkpt>
      <trkpt lat="47.17936" lon="-1.59848">
        <ele>19</ele>
        <time>2014-03-06T16:49:19Z</time>
      </trkpt>
      <trkpt lat="47.17945" lon="-1.59804">
        <ele>22</ele>
        <time>2014-03-06T16:49:23Z</time>
      </trkpt>
      <trkpt lat="47.17953" lon="-1.59767">
        <ele>22</ele>
        <time>2014-03-06T16:49:27Z</time>
      </trkpt>
      <trkpt lat="47.17955" lon="-1.59747">
        <ele>23</ele>
        <time>2014-03-06T16:49:31Z</time>
      </trkpt>
      <trkpt lat="47.17963" lon="-1.59718">
        <ele>25</ele>
        <time>2014-03-06T16:49:35Z</time>
      </trkpt>
      <trkpt lat="47.17974" lon="-1.59691">
        <ele>26</ele>
        <time>2014-03-06T16:49:39Z</time>
      </trkpt>
      <trkpt lat="47.17982" lon="-1.59657">
        <ele>26</ele>
        <time>2014-03-06T16:49:43Z</time>
      </trkpt>
      <trkpt lat="47.17993" lon="-1.59615">
        <ele>27</ele>
        <time>2014-03-06T16:49:48Z</time>
      </trkpt>
      <trkpt lat="47.17995" lon="-1.59606">
        <ele>27</ele>
        <time>2014-03-06T16:49:49Z</time>
      </trkpt>
      <trkpt lat="47.18008" lon="-1.59559">
        <ele>25</ele>
        <time>2014-03-06T16:49:55Z</time>
      </trkpt>
      <trkpt lat="47.18019" lon="-1.59526">
        <ele>26</ele>
        <time>2014-03-06T16:49:59Z</time>
      </trkpt>
      <trkpt lat="47.18027" lon="-1.59492">
        <ele>25</ele>
        <time>2014-03-06T16:50:03Z</time>
      </trkpt>
      <trkpt lat="47.18036" lon="-1.59461">
        <ele>25</ele>
        <time>2014-03-06T16:50:07Z</time>
      </trkpt>
      <trkpt lat="47.18046" lon="-1.5943">
        <ele>26</ele>
        <time>2014-03-06T16:50:11Z</time>
      </trkpt>
      <trkpt lat="47.18052" lon="-1.59412">
        <ele>28</ele>
        <time>2014-03-06T16:50:14Z</time>
      </trkpt>
      <trkpt lat="47.18072" lon="-1.59399">
        <ele>30</ele>
        <time>2014-03-06T16:50:19Z</time>
      </trkpt>
      <trkpt lat="47.18091" lon="-1.59383">
        <ele>33</ele>
        <time>2014-03-06T16:50:23Z</time>
      </trkpt>
      <trkpt lat="47.18107" lon="-1.5937">
        <ele>32</ele>
        <time>2014-03-06T16:50:26Z</time>
      </trkpt>
      <trkpt lat="47.18142" lon="-1.59335">
        <ele>32</ele>
        <time>2014-03-06T16:50:32Z</time>
      </trkpt>
      <trkpt lat="47.18158" lon="-1.59317">
        <ele>31</ele>
        <time>2014-03-06T16:50:35Z</time>
      </trkpt>
      <trkpt lat="47.18186" lon="-1.59288">
        <ele>32</ele>
        <time>2014-03-06T16:50:40Z</time>
      </trkpt>
      <trkpt lat="47.18204" lon="-1.59272">
        <ele>31</ele>
        <time>2014-03-06T16:50:43Z</time>
      </trkpt>
      <trkpt lat="47.18227" lon="-1.59247">
        <ele>31</ele>
        <time>2014-03-06T16:50:47Z</time>
      </trkpt>
      <trkpt lat="47.18253" lon="-1.59215">
        <ele>33</ele>
        <time>2014-03-06T16:50:52Z</time>
      </trkpt>
      <trkpt lat="47.18269" lon="-1.59193">
        <ele>33</ele>
        <time>2014-03-06T16:50:55Z</time>
      </trkpt>
      <trkpt lat="47.18289" lon="-1.59154">
        <ele>31</ele>
        <time>2014-03-06T16:50:59Z</time>
      </trkpt>
      <trkpt lat="47.18304" lon="-1.59114">
        <ele>31</ele>
        <time>2014-03-06T16:51:03Z</time>
      </trkpt>
      <trkpt lat="47.18321" lon="-1.59062">
        <ele>29</ele>
        <time>2014-03-06T16:51:08Z</time>
      </trkpt>
      <trkpt lat="47.18328" lon="-1.5904">
        <ele>30</ele>
        <time>2014-03-06T16:51:10Z</time>
      </trkpt>
      <trkpt lat="47.18353" lon="-1.59">
        <ele>30</ele>
        <time>2014-03-06T16:51:15Z</time>
      </trkpt>
      <trkpt lat="47.18377" lon="-1.58978">
        <ele>28</ele>
        <time>2014-03-06T16:51:19Z</time>
      </trkpt>
      <trkpt lat="47.18392" lon="-1.58969">
        <ele>28</ele>
        <time>2014-03-06T16:51:24Z</time>
      </trkpt>
      <trkpt lat="47.18399" lon="-1.58967">
        <ele>29</ele>
        <time>2014-03-06T16:51:26Z</time>
      </trkpt>
      <trkpt lat="47.18425" lon="-1.58949">
        <ele>32</ele>
        <time>2014-03-06T16:51:32Z</time>
      </trkpt>
      <trkpt lat="47.18434" lon="-1.58942">
        <ele>34</ele>
        <time>2014-03-06T16:51:34Z</time>
      </trkpt>
      <trkpt lat="47.1847" lon="-1.58912">
        <ele>37</ele>
        <time>2014-03-06T16:51:41Z</time>
      </trkpt>
      <trkpt lat="47.18484" lon="-1.58894">
        <ele>33</ele>
        <time>2014-03-06T16:51:44Z</time>
      </trkpt>
      <trkpt lat="47.18495" lon="-1.58854">
        <ele>32</ele>
        <time>2014-03-06T16:51:49Z</time>
      </trkpt>
      <trkpt lat="47.18508" lon="-1.58822">
        <ele>31</ele>
        <time>2014-03-06T16:51:53Z</time>
      </trkpt>
      <trkpt lat="47.18513" lon="-1.58793">
        <ele>32</ele>
        <time>2014-03-06T16:51:57Z</time>
      </trkpt>
      <trkpt lat="47.18514" lon="-1.5877">
        <ele>31</ele>
        <time>2014-03-06T16:52:00Z</time>
      </trkpt>
      <trkpt lat="47.18514" lon="-1.58747">
        <ele>31</ele>
        <time>2014-03-06T16:52:03Z</time>
      </trkpt>
      <trkpt lat="47.18514" lon="-1.58708">
        <ele>29</ele>
        <time>2014-03-06T16:52:09Z</time>
      </trkpt>
      <trkpt lat="47.18499" lon="-1.58678">
        <ele>26</ele>
        <time>2014-03-06T16:52:22Z</time>
      </trkpt>
      <trkpt lat="47.18498" lon="-1.58618">
        <ele>20</ele>
        <time>2014-03-06T16:52:28Z</time>
      </trkpt>
      <trkpt lat="47.18507" lon="-1.58573">
        <ele>18</ele>
        <time>2014-03-06T16:52:32Z</time>
      </trkpt>
      <trkpt lat="47.18526" lon="-1.58526">
        <ele>20</ele>
        <time>2014-03-06T16:52:36Z</time>
      </trkpt>
      <trkpt lat="47.18537" lon="-1.58475">
        <ele>18</ele>
        <time>2014-03-06T16:52:40Z</time>
      </trkpt>
      <trkpt lat="47.18545" lon="-1.58417">
        <ele>18</ele>
        <time>2014-03-06T16:52:44Z</time>
      </trkpt>
      <trkpt lat="47.18555" lon="-1.58359">
        <ele>17</ele>
        <time>2014-03-06T16:52:48Z</time>
      </trkpt>
      <trkpt lat="47.18562" lon="-1.58309">
        <ele>20</ele>
        <time>2014-03-06T16:52:52Z</time>
      </trkpt>
      <trkpt lat="47.18571" lon="-1.58259">
        <ele>19</ele>
        <time>2014-03-06T16:52:56Z</time>
      </trkpt>
      <trkpt lat="47.18581" lon="-1.58199">
        <ele>22</ele>
        <time>2014-03-06T16:53:01Z</time>
      </trkpt>
      <trkpt lat="47.18586" lon="-1.58166">
        <ele>23</ele>
        <time>2014-03-06T16:53:04Z</time>
      </trkpt>
      <trkpt lat="47.18591" lon="-1.58138">
        <ele>25</ele>
        <time>2014-03-06T16:53:07Z</time>
      </trkpt>
      <trkpt lat="47.18597" lon="-1.58096">
        <ele>24</ele>
        <time>2014-03-06T16:53:12Z</time>
      </trkpt>
      <trkpt lat="47.186" lon="-1.58067">
        <ele>25</ele>
        <time>2014-03-06T16:53:16Z</time>
      </trkpt>
      <trkpt lat="47.18603" lon="-1.58049">
        <ele>26</ele>
        <time>2014-03-06T16:53:18Z</time>
      </trkpt>
      <trkpt lat="47.18615" lon="-1.57983">
        <ele>28</ele>
        <time>2014-03-06T16:53:25Z</time>
      </trkpt>
      <trkpt lat="47.18616" lon="-1.57974">
        <ele>27</ele>
        <time>2014-03-06T16:53:26Z</time>
      </trkpt>
      <trkpt lat="47.18627" lon="-1.57908">
        <ele>22</ele>
        <time>2014-03-06T16:53:33Z</time>
      </trkpt>
      <trkpt lat="47.18632" lon="-1.57878">
        <ele>22</ele>
        <time>2014-03-06T16:53:36Z</time>
      </trkpt>
      <trkpt lat="47.18634" lon="-1.57856">
        <ele>22</ele>
        <time>2014-03-06T16:53:38Z</time>
      </trkpt>
      <trkpt lat="47.18632" lon="-1.57788">
        <ele>22</ele>
        <time>2014-03-06T16:53:45Z</time>
      </trkpt>
      <trkpt lat="47.18631" lon="-1.57779">
        <ele>23</ele>
        <time>2014-03-06T16:53:46Z</time>
      </trkpt>
      <trkpt lat="47.18628" lon="-1.57711">
        <ele>21</ele>
        <time>2014-03-06T16:53:52Z</time>
      </trkpt>
      <trkpt lat="47.18625" lon="-1.57662">
        <ele>22</ele>
        <time>2014-03-06T16:53:57Z</time>
      </trkpt>
      <trkpt lat="47.18622" lon="-1.57643">
        <ele>21</ele>
        <time>2014-03-06T16:53:59Z</time>
      </trkpt>
      <trkpt lat="47.18622" lon="-1.57598">
        <ele>22</ele>
        <time>2014-03-06T16:54:03Z</time>
      </trkpt>
      <trkpt lat="47.18628" lon="-1.57538">
        <ele>19</ele>
        <time>2014-03-06T16:54:09Z</time>
      </trkpt>
      <trkpt lat="47.18655" lon="-1.57485">
        <ele>17</ele>
        <time>2014-03-06T16:54:14Z</time>
      </trkpt>
      <trkpt lat="47.18663" lon="-1.57475">
        <ele>16</ele>
        <time>2014-03-06T16:54:15Z</time>
      </trkpt>
      <trkpt lat="47.18711" lon="-1.57444">
        <ele>16</ele>
        <time>2014-03-06T16:54:20Z</time>
      </trkpt>
      <trkpt lat="47.18757" lon="-1.57421">
        <ele>15</ele>
        <time>2014-03-06T16:54:25Z</time>
      </trkpt>
      <trkpt lat="47.1879" lon="-1.57402">
        <ele>15</ele>
        <time>2014-03-06T16:54:29Z</time>
      </trkpt>
      <trkpt lat="47.18815" lon="-1.57368">
        <ele>21</ele>
        <time>2014-03-06T16:54:33Z</time>
      </trkpt>
      <trkpt lat="47.18825" lon="-1.57331">
        <ele>24</ele>
        <time>2014-03-06T16:54:37Z</time>
      </trkpt>
      <trkpt lat="47.18836" lon="-1.57298">
        <ele>25</ele>
        <time>2014-03-06T16:54:41Z</time>
      </trkpt>
      <trkpt lat="47.18844" lon="-1.57263">
        <ele>25</ele>
        <time>2014-03-06T16:54:45Z</time>
      </trkpt>
      <trkpt lat="47.18858" lon="-1.57225">
        <ele>25</ele>
        <time>2014-03-06T16:54:49Z</time>
      </trkpt>
      <trkpt lat="47.18871" lon="-1.57177">
        <ele>25</ele>
        <time>2014-03-06T16:54:54Z</time>
      </trkpt>
      <trkpt lat="47.18874" lon="-1.57169">
        <ele>25</ele>
        <time>2014-03-06T16:54:55Z</time>
      </trkpt>
      <trkpt lat="47.18891" lon="-1.5711">
        <ele>23</ele>
        <time>2014-03-06T16:55:01Z</time>
      </trkpt>
      <trkpt lat="47.18897" lon="-1.57089">
        <ele>24</ele>
        <time>2014-03-06T16:55:03Z</time>
      </trkpt>
      <trkpt lat="47.18912" lon="-1.57026">
        <ele>24</ele>
        <time>2014-03-06T16:55:09Z</time>
      </trkpt>
      <trkpt lat="47.18927" lon="-1.56986">
        <ele>25</ele>
        <time>2014-03-06T16:55:14Z</time>
      </trkpt>
      <trkpt lat="47.18934" lon="-1.56969">
        <ele>30</ele>
        <time>2014-03-06T16:55:19Z</time>
      </trkpt>
      <trkpt lat="47.18936" lon="-1.5696">
        <ele>30</ele>
        <time>2014-03-06T16:55:21Z</time>
      </trkpt>
      <trkpt lat="47.18952" lon="-1.56924">
        <ele>26</ele>
        <time>2014-03-06T16:55:26Z</time>
      </trkpt>
      <trkpt lat="47.18967" lon="-1.56895">
        <ele>26</ele>
        <time>2014-03-06T16:55:30Z</time>
      </trkpt>
      <trkpt lat="47.18978" lon="-1.56869">
        <ele>28</ele>
        <time>2014-03-06T16:55:34Z</time>
      </trkpt>
      <trkpt lat="47.18988" lon="-1.56833">
        <ele>28</ele>
        <time>2014-03-06T16:55:38Z</time>
      </trkpt>
      <trkpt lat="47.19001" lon="-1.56811">
        <ele>28</ele>
        <time>2014-03-06T16:55:41Z</time>
      </trkpt>
      <trkpt lat="47.19013" lon="-1.56768">
        <ele>27</ele>
        <time>2014-03-06T16:55:46Z</time>
      </trkpt>
      <trkpt lat="47.1902" lon="-1.5673">
        <ele>26</ele>
        <time>2014-03-06T16:55:50Z</time>
      </trkpt>
      <trkpt lat="47.19027" lon="-1.56686">
        <ele>26</ele>
        <time>2014-03-06T16:55:54Z</time>
      </trkpt>
      <trkpt lat="47.19034" lon="-1.56645">
        <ele>27</ele>
        <time>2014-03-06T16:55:58Z</time>
      </trkpt>
      <trkpt lat="47.1904" lon="-1.56596">
        <ele>27</ele>
        <time>2014-03-06T16:56:02Z</time>
      </trkpt>
      <trkpt lat="47.19048" lon="-1.56561">
        <ele>30</ele>
        <time>2014-03-06T16:56:05Z</time>
      </trkpt>
      <trkpt lat="47.19034" lon="-1.56502">
        <ele>29</ele>
        <time>2014-03-06T16:56:11Z</time>
      </trkpt>
      <trkpt lat="47.1902" lon="-1.56468">
        <ele>29</ele>
        <time>2014-03-06T16:56:14Z</time>
      </trkpt>
      <trkpt lat="47.18996" lon="-1.56438">
        <ele>29</ele>
        <time>2014-03-06T16:56:18Z</time>
      </trkpt>
      <trkpt lat="47.1897" lon="-1.56414">
        <ele>26</ele>
        <time>2014-03-06T16:56:22Z</time>
      </trkpt>
      <trkpt lat="47.18958" lon="-1.56401">
        <ele>26</ele>
        <time>2014-03-06T16:56:24Z</time>
      </trkpt>
      <trkpt lat="47.18922" lon="-1.56364">
        <ele>25</ele>
        <time>2014-03-06T16:56:30Z</time>
      </trkpt>
      <trkpt lat="47.18902" lon="-1.56323">
        <ele>23</ele>
        <time>2014-03-06T16:56:35Z</time>
      </trkpt>
      <trkpt lat="47.18896" lon="-1.56286">
        <ele>23</ele>
        <time>2014-03-06T16:56:39Z</time>
      </trkpt>
      <trkpt lat="47.18888" lon="-1.56237">
        <ele>23</ele>
        <time>2014-03-06T16:56:44Z</time>
      </trkpt>
      <trkpt lat="47.18883" lon="-1.56208">
        <ele>25</ele>
        <time>2014-03-06T16:56:47Z</time>
      </trkpt>
      <trkpt lat="47.18876" lon="-1.56176">
        <ele>27</ele>
        <time>2014-03-06T16:56:51Z</time>
      </trkpt>
      <trkpt lat="47.18866" lon="-1.56132">
        <ele>25</ele>
        <time>2014-03-06T16:56:56Z</time>
      </trkpt>
      <trkpt lat="47.18862" lon="-1.56116">
        <ele>24</ele>
        <time>2014-03-06T16:56:58Z</time>
      </trkpt>
      <trkpt lat="47.18847" lon="-1.5608">
        <ele>23</ele>
        <time>2014-03-06T16:57:03Z</time>
      </trkpt>
      <trkpt lat="47.18843" lon="-1.56065">
        <ele>23</ele>
        <time>2014-03-06T16:57:05Z</time>
      </trkpt>
      <trkpt lat="47.18823" lon="-1.56001">
        <ele>23</ele>
        <time>2014-03-06T16:57:12Z</time>
      </trkpt>
      <trkpt lat="47.18808" lon="-1.55983">
        <ele>24</ele>
        <time>2014-03-06T16:57:15Z</time>
      </trkpt>
      <trkpt lat="47.1878" lon="-1.55975">
        <ele>27</ele>
        <time>2014-03-06T16:57:19Z</time>
      </trkpt>
      <trkpt lat="47.18756" lon="-1.55971">
        <ele>28</ele>
        <time>2014-03-06T16:57:23Z</time>
      </trkpt>
      <trkpt lat="47.18733" lon="-1.55968">
        <ele>30</ele>
        <time>2014-03-06T16:57:27Z</time>
      </trkpt>
      <trkpt lat="47.18721" lon="-1.55969">
        <ele>30</ele>
        <time>2014-03-06T16:57:29Z</time>
      </trkpt>
      <trkpt lat="47.18685" lon="-1.55965">
        <ele>30</ele>
        <time>2014-03-06T16:57:35Z</time>
      </trkpt>
      <trkpt lat="47.18653" lon="-1.55963">
        <ele>31</ele>
        <time>2014-03-06T16:57:40Z</time>
      </trkpt>
      <trkpt lat="47.18639" lon="-1.55956">
        <ele>32</ele>
        <time>2014-03-06T16:57:42Z</time>
      </trkpt>
      <trkpt lat="47.18624" lon="-1.55948">
        <ele>32</ele>
        <time>2014-03-06T16:57:45Z</time>
      </trkpt>
      <trkpt lat="47.18604" lon="-1.55944">
        <ele>34</ele>
        <time>2014-03-06T16:57:50Z</time>
      </trkpt>
      <trkpt lat="47.18587" lon="-1.55942">
        <ele>39</ele>
        <time>2014-03-06T16:57:53Z</time>
      </trkpt>
      <trkpt lat="47.18545" lon="-1.5593">
        <ele>44</ele>
        <time>2014-03-06T16:58:00Z</time>
      </trkpt>
      <trkpt lat="47.18526" lon="-1.55922">
        <ele>45</ele>
        <time>2014-03-06T16:58:03Z</time>
      </trkpt>
      <trkpt lat="47.18514" lon="-1.55905">
        <ele>43</ele>
        <time>2014-03-06T16:58:05Z</time>
      </trkpt>
      <trkpt lat="47.18498" lon="-1.5596">
        <ele>46</ele>
        <time>2014-03-06T16:58:12Z</time>
      </trkpt>
      <trkpt lat="47.18499" lon="-1.55969">
        <ele>48</ele>
        <time>2014-03-06T16:58:13Z</time>
      </trkpt>
      <trkpt lat="47.18485" lon="-1.56003">
        <ele>43</ele>
        <time>2014-03-06T16:58:18Z</time>
      </trkpt>
      <trkpt lat="47.18457" lon="-1.55996">
        <ele>36</ele>
        <time>2014-03-06T16:58:24Z</time>
      </trkpt>
      <trkpt lat="47.18454" lon="-1.55981">
        <ele>35</ele>
        <time>2014-03-06T16:58:26Z</time>
      </trkpt>
      <trkpt lat="47.18454" lon="-1.55936">
        <ele>39</ele>
        <time>2014-03-06T16:58:32Z</time>
      </trkpt>
      <trkpt lat="47.18456" lon="-1.55928">
        <ele>40</ele>
        <time>2014-03-06T16:58:33Z</time>
      </trkpt>
      <trkpt lat="47.18461" lon="-1.55879">
        <ele>37</ele>
        <time>2014-03-06T16:58:39Z</time>
      </trkpt>
      <trkpt lat="47.18467" lon="-1.55842">
        <ele>36</ele>
        <time>2014-03-06T16:58:43Z</time>
      </trkpt>
      <trkpt lat="47.1847" lon="-1.55821">
        <ele>38</ele>
        <time>2014-03-06T16:58:45Z</time>
      </trkpt>
      <trkpt lat="47.18478" lon="-1.55785">
        <ele>41</ele>
        <time>2014-03-06T16:58:49Z</time>
      </trkpt>
      <trkpt lat="47.18489" lon="-1.55713">
        <ele>40</ele>
        <time>2014-03-06T16:58:56Z</time>
      </trkpt>
      <trkpt lat="47.18493" lon="-1.55682">
        <ele>40</ele>
        <time>2014-03-06T16:58:59Z</time>
      </trkpt>
      <trkpt lat="47.18503" lon="-1.55629">
        <ele>39</ele>
        <time>2014-03-06T16:59:04Z</time>
      </trkpt>
      <trkpt lat="47.1851" lon="-1.55597">
        <ele>39</ele>
        <time>2014-03-06T16:59:07Z</time>
      </trkpt>
      <trkpt lat="47.18519" lon="-1.55546">
        <ele>36</ele>
        <time>2014-03-06T16:59:12Z</time>
      </trkpt>
      <trkpt lat="47.18525" lon="-1.55515">
        <ele>36</ele>
        <time>2014-03-06T16:59:15Z</time>
      </trkpt>
      <trkpt lat="47.18533" lon="-1.55473">
        <ele>35</ele>
        <time>2014-03-06T16:59:19Z</time>
      </trkpt>
      <trkpt lat="47.18537" lon="-1.5545">
        <ele>34</ele>
        <time>2014-03-06T16:59:21Z</time>
      </trkpt>
      <trkpt lat="47.18547" lon="-1.55396">
        <ele>32</ele>
        <time>2014-03-06T16:59:26Z</time>
      </trkpt>
      <trkpt lat="47.18542" lon="-1.55358">
        <ele>32</ele>
        <time>2014-03-06T16:59:32Z</time>
      </trkpt>
      <trkpt lat="47.18542" lon="-1.55339">
        <ele>33</ele>
        <time>2014-03-06T16:59:35Z</time>
      </trkpt>
      <trkpt lat="47.1857" lon="-1.5531">
        <ele>31</ele>
        <time>2014-03-06T16:59:40Z</time>
      </trkpt>
      <trkpt lat="47.186" lon="-1.55286">
        <ele>32</ele>
        <time>2014-03-06T16:59:44Z</time>
      </trkpt>
      <trkpt lat="47.1863" lon="-1.55266">
        <ele>31</ele>
        <time>2014-03-06T16:59:48Z</time>
      </trkpt>
      <trkpt lat="47.18645" lon="-1.55257">
        <ele>31</ele>
        <time>2014-03-06T16:59:50Z</time>
      </trkpt>
      <trkpt lat="47.18687" lon="-1.55223">
        <ele>31</ele>
        <time>2014-03-06T16:59:56Z</time>
      </trkpt>
      <trkpt lat="47.18721" lon="-1.55198">
        <ele>31</ele>
        <time>2014-03-06T17:00:01Z</time>
      </trkpt>
      <trkpt lat="47.18754" lon="-1.55178">
        <ele>30</ele>
        <time>2014-03-06T17:00:05Z</time>
      </trkpt>
      <trkpt lat="47.18768" lon="-1.55167">
        <ele>32</ele>
        <time>2014-03-06T17:00:07Z</time>
      </trkpt>
      <trkpt lat="47.18801" lon="-1.55156">
        <ele>38</ele>
        <time>2014-03-06T17:00:12Z</time>
      </trkpt>
      <trkpt lat="47.18828" lon="-1.55137">
        <ele>42</ele>
        <time>2014-03-06T17:00:17Z</time>
      </trkpt>
      <trkpt lat="47.1885" lon="-1.55121">
        <ele>39</ele>
        <time>2014-03-06T17:00:21Z</time>
      </trkpt>
      <trkpt lat="47.18875" lon="-1.55104">
        <ele>38</ele>
        <time>2014-03-06T17:00:27Z</time>
      </trkpt>
      <trkpt lat="47.18906" lon="-1.55104">
        <ele>38</ele>
        <time>2014-03-06T17:00:31Z</time>
      </trkpt>
      <trkpt lat="47.18913" lon="-1.55105">
        <ele>37</ele>
        <time>2014-03-06T17:00:32Z</time>
      </trkpt>
      <trkpt lat="47.18957" lon="-1.55087">
        <ele>36</ele>
        <time>2014-03-06T17:00:38Z</time>
      </trkpt>
      <trkpt lat="47.18988" lon="-1.55075">
        <ele>35</ele>
        <time>2014-03-06T17:00:42Z</time>
      </trkpt>
      <trkpt lat="47.19016" lon="-1.55064">
        <ele>36</ele>
        <time>2014-03-06T17:00:46Z</time>
      </trkpt>
      <trkpt lat="47.19029" lon="-1.55052">
        <ele>34</ele>
        <time>2014-03-06T17:00:48Z</time>
      </trkpt>
      <trkpt lat="47.19064" lon="-1.5503">
        <ele>33</ele>
        <time>2014-03-06T17:00:53Z</time>
      </trkpt>
      <trkpt lat="47.19092" lon="-1.55">
        <ele>29</ele>
        <time>2014-03-06T17:00:58Z</time>
      </trkpt>
      <trkpt lat="47.19125" lon="-1.54963">
        <ele>30</ele>
        <time>2014-03-06T17:01:03Z</time>
      </trkpt>
      <trkpt lat="47.19139" lon="-1.54946">
        <ele>30</ele>
        <time>2014-03-06T17:01:05Z</time>
      </trkpt>
      <trkpt lat="47.1916" lon="-1.54892">
        <ele>28</ele>
        <time>2014-03-06T17:01:10Z</time>
      </trkpt>
      <trkpt lat="47.19158" lon="-1.54868">
        <ele>27</ele>
        <time>2014-03-06T17:01:13Z</time>
      </trkpt>
      <trkpt lat="47.19153" lon="-1.54826">
        <ele>28</ele>
        <time>2014-03-06T17:01:19Z</time>
      </trkpt>
      <trkpt lat="47.19167" lon="-1.54794">
        <ele>29</ele>
        <time>2014-03-06T17:01:23Z</time>
      </trkpt>
      <trkpt lat="47.19193" lon="-1.54777">
        <ele>29</ele>
        <time>2014-03-06T17:01:27Z</time>
      </trkpt>
      <trkpt lat="47.19204" lon="-1.54769">
        <ele>30</ele>
        <time>2014-03-06T17:01:29Z</time>
      </trkpt>
      <trkpt lat="47.19225" lon="-1.54752">
        <ele>29</ele>
        <time>2014-03-06T17:01:33Z</time>
      </trkpt>
      <trkpt lat="47.19258" lon="-1.54693">
        <ele>29</ele>
        <time>2014-03-06T17:01:40Z</time>
      </trkpt>
      <trkpt lat="47.19283" lon="-1.54673">
        <ele>28</ele>
        <time>2014-03-06T17:01:44Z</time>
      </trkpt>
      <trkpt lat="47.19298" lon="-1.54658">
        <ele>29</ele>
        <time>2014-03-06T17:01:47Z</time>
      </trkpt>
      <trkpt lat="47.19308" lon="-1.54647">
        <ele>28</ele>
        <time>2014-03-06T17:01:49Z</time>
      </trkpt>
      <trkpt lat="47.19353" lon="-1.54598">
        <ele>20</ele>
        <time>2014-03-06T17:01:56Z</time>
      </trkpt>
      <trkpt lat="47.19368" lon="-1.54579">
        <ele>19</ele>
        <time>2014-03-06T17:01:59Z</time>
      </trkpt>
      <trkpt lat="47.19385" lon="-1.54561">
        <ele>16</ele>
        <time>2014-03-06T17:02:03Z</time>
      </trkpt>
      <trkpt lat="47.19393" lon="-1.54552">
        <ele>14</ele>
        <time>2014-03-06T17:02:05Z</time>
      </trkpt>
      <trkpt lat="47.19421" lon="-1.5454">
        <ele>15</ele>
        <time>2014-03-06T17:02:12Z</time>
      </trkpt>
      <trkpt lat="47.19436" lon="-1.54525">
        <ele>15</ele>
        <time>2014-03-06T17:02:16Z</time>
      </trkpt>
      <trkpt lat="47.19445" lon="-1.545">
        <ele>14</ele>
        <time>2014-03-06T17:02:20Z</time>
      </trkpt>
      <trkpt lat="47.19465" lon="-1.54474">
        <ele>14</ele>
        <time>2014-03-06T17:02:24Z</time>
      </trkpt>
      <trkpt lat="47.19478" lon="-1.54464">
        <ele>17</ele>
        <time>2014-03-06T17:02:26Z</time>
      </trkpt>
      <trkpt lat="47.19521" lon="-1.54432">
        <ele>18</ele>
        <time>2014-03-06T17:02:33Z</time>
      </trkpt>
      <trkpt lat="47.19541" lon="-1.54415">
        <ele>16</ele>
        <time>2014-03-06T17:02:37Z</time>
      </trkpt>
      <trkpt lat="47.19555" lon="-1.54402">
        <ele>14</ele>
        <time>2014-03-06T17:02:40Z</time>
      </trkpt>
      <trkpt lat="47.19573" lon="-1.54388">
        <ele>13</ele>
        <time>2014-03-06T17:02:44Z</time>
      </trkpt>
      <trkpt lat="47.19599" lon="-1.5437">
        <ele>14</ele>
        <time>2014-03-06T17:02:49Z</time>
      </trkpt>
      <trkpt lat="47.19615" lon="-1.54351">
        <ele>13</ele>
        <time>2014-03-06T17:02:52Z</time>
      </trkpt>
      <trkpt lat="47.19625" lon="-1.54336">
        <ele>13</ele>
        <time>2014-03-06T17:02:54Z</time>
      </trkpt>
      <trkpt lat="47.19653" lon="-1.54303">
        <ele>11</ele>
        <time>2014-03-06T17:03:01Z</time>
      </trkpt>
      <trkpt lat="47.1966" lon="-1.54302">
        <ele>13</ele>
        <time>2014-03-06T17:03:04Z</time>
      </trkpt>
      <trkpt lat="47.19683" lon="-1.54285">
        <ele>13</ele>
        <time>2014-03-06T17:03:10Z</time>
      </trkpt>
      <trkpt lat="47.19705" lon="-1.54263">
        <ele>12</ele>
        <time>2014-03-06T17:03:13Z</time>
      </trkpt>
      <trkpt lat="47.19748" lon="-1.5423">
        <ele>14</ele>
        <time>2014-03-06T17:03:19Z</time>
      </trkpt>
      <trkpt lat="47.19764" lon="-1.54214">
        <ele>13</ele>
        <time>2014-03-06T17:03:22Z</time>
      </trkpt>
      <trkpt lat="47.19773" lon="-1.54199">
        <ele>12</ele>
        <time>2014-03-06T17:03:25Z</time>
      </trkpt>
      <trkpt lat="47.19785" lon="-1.54176">
        <ele>15</ele>
        <time>2014-03-06T17:03:30Z</time>
      </trkpt>
      <trkpt lat="47.19791" lon="-1.54163">
        <ele>16</ele>
        <time>2014-03-06T17:03:32Z</time>
      </trkpt>
      <trkpt lat="47.198" lon="-1.5412">
        <ele>16</ele>
        <time>2014-03-06T17:03:38Z</time>
      </trkpt>
      <trkpt lat="47.1982" lon="-1.54101">
        <ele>15</ele>
        <time>2014-03-06T17:03:42Z</time>
      </trkpt>
      <trkpt lat="47.1983" lon="-1.54078">
        <ele>15</ele>
        <time>2014-03-06T17:03:46Z</time>
      </trkpt>
      <trkpt lat="47.19846" lon="-1.54052">
        <ele>16</ele>
        <time>2014-03-06T17:03:50Z</time>
      </trkpt>
      <trkpt lat="47.19861" lon="-1.54017">
        <ele>18</ele>
        <time>2014-03-06T17:03:54Z</time>
      </trkpt>
      <trkpt lat="47.19874" lon="-1.53974">
        <ele>19</ele>
        <time>2014-03-06T17:03:58Z</time>
      </trkpt>
      <trkpt lat="47.19881" lon="-1.53947">
        <ele>19</ele>
        <time>2014-03-06T17:04:00Z</time>
      </trkpt>
      <trkpt lat="47.19895" lon="-1.53901">
        <ele>19</ele>
        <time>2014-03-06T17:04:04Z</time>
      </trkpt>
      <trkpt lat="47.19905" lon="-1.53836">
        <ele>19</ele>
        <time>2014-03-06T17:04:10Z</time>
      </trkpt>
      <trkpt lat="47.1992" lon="-1.53781">
        <ele>20</ele>
        <time>2014-03-06T17:04:15Z</time>
      </trkpt>
      <trkpt lat="47.19931" lon="-1.53724">
        <ele>12</ele>
        <time>2014-03-06T17:04:19Z</time>
      </trkpt>
      <trkpt lat="47.19936" lon="-1.53691">
        <ele>13</ele>
        <time>2014-03-06T17:04:22Z</time>
      </trkpt>
      <trkpt lat="47.19951" lon="-1.53631">
        <ele>13</ele>
        <time>2014-03-06T17:04:27Z</time>
      </trkpt>
      <trkpt lat="47.19964" lon="-1.53585">
        <ele>13</ele>
        <time>2014-03-06T17:04:31Z</time>
      </trkpt>
      <trkpt lat="47.1997" lon="-1.53563">
        <ele>13</ele>
        <time>2014-03-06T17:04:33Z</time>
      </trkpt>
      <trkpt lat="47.19985" lon="-1.53503">
        <ele>14</ele>
        <time>2014-03-06T17:04:39Z</time>
      </trkpt>
      <trkpt lat="47.19993" lon="-1.53478">
        <ele>17</ele>
        <time>2014-03-06T17:04:42Z</time>
      </trkpt>
      <trkpt lat="47.20015" lon="-1.53473">
        <ele>19</ele>
        <time>2014-03-06T17:04:46Z</time>
      </trkpt>
      <trkpt lat="47.20028" lon="-1.53456">
        <ele>17</ele>
        <time>2014-03-06T17:04:49Z</time>
      </trkpt>
      <trkpt lat="47.20034" lon="-1.53431">
        <ele>16</ele>
        <time>2014-03-06T17:04:52Z</time>
      </trkpt>
      <trkpt lat="47.20051" lon="-1.53377">
        <ele>16</ele>
        <time>2014-03-06T17:04:58Z</time>
      </trkpt>
      <trkpt lat="47.20063" lon="-1.53331">
        <ele>18</ele>
        <time>2014-03-06T17:05:03Z</time>
      </trkpt>
      <trkpt lat="47.20073" lon="-1.53319">
        <ele>18</ele>
        <time>2014-03-06T17:05:05Z</time>
      </trkpt>
      <trkpt lat="47.20087" lon="-1.53296">
        <ele>17</ele>
        <time>2014-03-06T17:05:08Z</time>
      </trkpt>
      <trkpt lat="47.20102" lon="-1.53238">
        <ele>21</ele>
        <time>2014-03-06T17:05:14Z</time>
      </trkpt>
      <trkpt lat="47.20111" lon="-1.53194">
        <ele>20</ele>
        <time>2014-03-06T17:05:18Z</time>
      </trkpt>
      <trkpt lat="47.20125" lon="-1.5315">
        <ele>19</ele>
        <time>2014-03-06T17:05:22Z</time>
      </trkpt>
      <trkpt lat="47.2014" lon="-1.53123">
        <ele>20</ele>
        <time>2014-03-06T17:05:25Z</time>
      </trkpt>
      <trkpt lat="47.20154" lon="-1.53089">
        <ele>22</ele>
        <time>2014-03-06T17:05:28Z</time>
      </trkpt>
      <trkpt lat="47.20184" lon="-1.53043">
        <ele>24</ele>
        <time>2014-03-06T17:05:33Z</time>
      </trkpt>
      <trkpt lat="47.20223" lon="-1.52988">
        <ele>22</ele>
        <time>2014-03-06T17:05:39Z</time>
      </trkpt>
      <trkpt lat="47.20239" lon="-1.52957">
        <ele>23</ele>
        <time>2014-03-06T17:05:42Z</time>
      </trkpt>
      <trkpt lat="47.20262" lon="-1.52918">
        <ele>21</ele>
        <time>2014-03-06T17:05:46Z</time>
      </trkpt>
      <trkpt lat="47.20281" lon="-1.52879">
        <ele>20</ele>
        <time>2014-03-06T17:05:50Z</time>
      </trkpt>
      <trkpt lat="47.20301" lon="-1.52839">
        <ele>20</ele>
        <time>2014-03-06T17:05:54Z</time>
      </trkpt>
      <trkpt lat="47.20316" lon="-1.52807">
        <ele>17</ele>
        <time>2014-03-06T17:05:57Z</time>
      </trkpt>
      <trkpt lat="47.20344" lon="-1.52749">
        <ele>17</ele>
        <time>2014-03-06T17:06:03Z</time>
      </trkpt>
      <trkpt lat="47.20356" lon="-1.52723">
        <ele>18</ele>
        <time>2014-03-06T17:06:06Z</time>
      </trkpt>
      <trkpt lat="47.20366" lon="-1.52703">
        <ele>18</ele>
        <time>2014-03-06T17:06:08Z</time>
      </trkpt>
      <trkpt lat="47.20394" lon="-1.52638">
        <ele>19</ele>
        <time>2014-03-06T17:06:15Z</time>
      </trkpt>
      <trkpt lat="47.20404" lon="-1.5262">
        <ele>19</ele>
        <time>2014-03-06T17:06:17Z</time>
      </trkpt>
      <trkpt lat="47.20422" lon="-1.52559">
        <ele>14</ele>
        <time>2014-03-06T17:06:23Z</time>
      </trkpt>
      <trkpt lat="47.2043" lon="-1.5253">
        <ele>14</ele>
        <time>2014-03-06T17:06:26Z</time>
      </trkpt>
      <trkpt lat="47.20444" lon="-1.52488">
        <ele>19</ele>
        <time>2014-03-06T17:06:31Z</time>
      </trkpt>
      <trkpt lat="47.20459" lon="-1.52444">
        <ele>14</ele>
        <time>2014-03-06T17:06:36Z</time>
      </trkpt>
      <trkpt lat="47.20461" lon="-1.52425">
        <ele>12</ele>
        <time>2014-03-06T17:06:38Z</time>
      </trkpt>
      <trkpt lat="47.2047" lon="-1.52385">
        <ele>10</ele>
        <time>2014-03-06T17:06:43Z</time>
      </trkpt>
      <trkpt lat="47.20479" lon="-1.52353">
        <ele>10</ele>
        <time>2014-03-06T17:06:48Z</time>
      </trkpt>
      <trkpt lat="47.20482" lon="-1.52346">
        <ele>10</ele>
        <time>2014-03-06T17:06:49Z</time>
      </trkpt>
      <trkpt lat="47.20497" lon="-1.52298">
        <ele>10</ele>
        <time>2014-03-06T17:06:55Z</time>
      </trkpt>
      <trkpt lat="47.20504" lon="-1.52266">
        <ele>10</ele>
        <time>2014-03-06T17:06:59Z</time>
      </trkpt>
      <trkpt lat="47.20524" lon="-1.52247">
        <ele>11</ele>
        <time>2014-03-06T17:07:03Z</time>
      </trkpt>
      <trkpt lat="47.20531" lon="-1.52235">
        <ele>11</ele>
        <time>2014-03-06T17:07:05Z</time>
      </trkpt>
      <trkpt lat="47.20553" lon="-1.52191">
        <ele>13</ele>
        <time>2014-03-06T17:07:12Z</time>
      </trkpt>
      <trkpt lat="47.20568" lon="-1.52166">
        <ele>12</ele>
        <time>2014-03-06T17:07:16Z</time>
      </trkpt>
      <trkpt lat="47.20578" lon="-1.52163">
        <ele>15</ele>
        <time>2014-03-06T17:07:19Z</time>
      </trkpt>
      <trkpt lat="47.20591" lon="-1.52149">
        <ele>15</ele>
        <time>2014-03-06T17:07:23Z</time>
      </trkpt>
      <trkpt lat="47.20604" lon="-1.52118">
        <ele>14</ele>
        <time>2014-03-06T17:07:27Z</time>
      </trkpt>
      <trkpt lat="47.20623" lon="-1.52084">
        <ele>13</ele>
        <time>2014-03-06T17:07:31Z</time>
      </trkpt>
      <trkpt lat="47.20642" lon="-1.52053">
        <ele>13</ele>
        <time>2014-03-06T17:07:35Z</time>
      </trkpt>
      <trkpt lat="47.20666" lon="-1.5201">
        <ele>18</ele>
        <time>2014-03-06T17:07:40Z</time>
      </trkpt>
      <trkpt lat="47.20679" lon="-1.51983">
        <ele>19</ele>
        <time>2014-03-06T17:07:43Z</time>
      </trkpt>
      <trkpt lat="47.20704" lon="-1.51947">
        <ele>17</ele>
        <time>2014-03-06T17:07:48Z</time>
      </trkpt>
      <trkpt lat="47.20716" lon="-1.5192">
        <ele>16</ele>
        <time>2014-03-06T17:07:51Z</time>
      </trkpt>
      <trkpt lat="47.20731" lon="-1.51883">
        <ele>16</ele>
        <time>2014-03-06T17:07:55Z</time>
      </trkpt>
      <trkpt lat="47.20742" lon="-1.51855">
        <ele>16</ele>
        <time>2014-03-06T17:07:58Z</time>
      </trkpt>
      <trkpt lat="47.20762" lon="-1.51806">
        <ele>15</ele>
        <time>2014-03-06T17:08:03Z</time>
      </trkpt>
      <trkpt lat="47.20778" lon="-1.5175">
        <ele>16</ele>
        <time>2014-03-06T17:08:08Z</time>
      </trkpt>
      <trkpt lat="47.20783" lon="-1.51716">
        <ele>15</ele>
        <time>2014-03-06T17:08:11Z</time>
      </trkpt>
      <trkpt lat="47.20791" lon="-1.51663">
        <ele>13</ele>
        <time>2014-03-06T17:08:16Z</time>
      </trkpt>
      <trkpt lat="47.20795" lon="-1.51652">
        <ele>13</ele>
        <time>2014-03-06T17:08:17Z</time>
      </trkpt>
      <trkpt lat="47.20804" lon="-1.51583">
        <ele>13</ele>
        <time>2014-03-06T17:08:24Z</time>
      </trkpt>
      <trkpt lat="47.2081" lon="-1.51532">
        <ele>12</ele>
        <time>2014-03-06T17:08:29Z</time>
      </trkpt>
      <trkpt lat="47.20816" lon="-1.51503">
        <ele>13</ele>
        <time>2014-03-06T17:08:32Z</time>
      </trkpt>
      <trkpt lat="47.20823" lon="-1.51464">
        <ele>14</ele>
        <time>2014-03-06T17:08:36Z</time>
      </trkpt>
      <trkpt lat="47.20826" lon="-1.51425">
        <ele>13</ele>
        <time>2014-03-06T17:08:40Z</time>
      </trkpt>
      <trkpt lat="47.20835" lon="-1.51386">
        <ele>13</ele>
        <time>2014-03-06T17:08:44Z</time>
      </trkpt>
      <trkpt lat="47.20847" lon="-1.51352">
        <ele>12</ele>
        <time>2014-03-06T17:08:48Z</time>
      </trkpt>
      <trkpt lat="47.20849" lon="-1.51334">
        <ele>11</ele>
        <time>2014-03-06T17:08:50Z</time>
      </trkpt>
      <trkpt lat="47.20873" lon="-1.51286">
        <ele>12</ele>
        <time>2014-03-06T17:08:56Z</time>
      </trkpt>
      <trkpt lat="47.2089" lon="-1.5125">
        <ele>10</ele>
        <time>2014-03-06T17:09:01Z</time>
      </trkpt>
      <trkpt lat="47.20901" lon="-1.51216">
        <ele>11</ele>
        <time>2014-03-06T17:09:04Z</time>
      </trkpt>
      <trkpt lat="47.20914" lon="-1.51169">
        <ele>13</ele>
        <time>2014-03-06T17:09:09Z</time>
      </trkpt>
      <trkpt lat="47.2092" lon="-1.51152">
        <ele>14</ele>
        <time>2014-03-06T17:09:11Z</time>
      </trkpt>
      <trkpt lat="47.20935" lon="-1.51115">
        <ele>15</ele>
        <time>2014-03-06T17:09:16Z</time>
      </trkpt>
      <trkpt lat="47.20941" lon="-1.5109">
        <ele>15</ele>
        <time>2014-03-06T17:09:19Z</time>
      </trkpt>
      <trkpt lat="47.20943" lon="-1.51052">
        <ele>13</ele>
        <time>2014-03-06T17:09:24Z</time>
      </trkpt>
      <trkpt lat="47.20944" lon="-1.51028">
        <ele>13</ele>
        <time>2014-03-06T17:09:29Z</time>
      </trkpt>
      <trkpt lat="47.20935" lon="-1.51018">
        <ele>13</ele>
        <time>2014-03-06T17:09:34Z</time>
      </trkpt>
      <trkpt lat="47.20933" lon="-1.50989">
        <ele>14</ele>
        <time>2014-03-06T17:09:38Z</time>
      </trkpt>
      <trkpt lat="47.20935" lon="-1.5096">
        <ele>14</ele>
        <time>2014-03-06T17:09:42Z</time>
      </trkpt>
      <trkpt lat="47.20931" lon="-1.5092">
        <ele>11</ele>
        <time>2014-03-06T17:09:46Z</time>
      </trkpt>
      <trkpt lat="47.20932" lon="-1.50887">
        <ele>12</ele>
        <time>2014-03-06T17:09:50Z</time>
      </trkpt>
      <trkpt lat="47.20931" lon="-1.50868">
        <ele>14</ele>
        <time>2014-03-06T17:09:52Z</time>
      </trkpt>
      <trkpt lat="47.20931" lon="-1.50819">
        <ele>19</ele>
        <time>2014-03-06T17:09:58Z</time>
      </trkpt>
      <trkpt lat="47.20933" lon="-1.50784">
        <ele>24</ele>
        <time>2014-03-06T17:10:02Z</time>
      </trkpt>
      <trkpt lat="47.20935" lon="-1.50749">
        <ele>24</ele>
        <time>2014-03-06T17:10:06Z</time>
      </trkpt>
      <trkpt lat="47.20934" lon="-1.50718">
        <ele>24</ele>
        <time>2014-03-06T17:10:10Z</time>
      </trkpt>
      <trkpt lat="47.20927" lon="-1.50682">
        <ele>24</ele>
        <time>2014-03-06T17:10:15Z</time>
      </trkpt>
      <trkpt lat="47.20922" lon="-1.50656">
        <ele>24</ele>
        <time>2014-03-06T17:10:18Z</time>
      </trkpt>
      <trkpt lat="47.20918" lon="-1.50624">
        <ele>25</ele>
        <time>2014-03-06T17:10:22Z</time>
      </trkpt>
      <trkpt lat="47.20913" lon="-1.50613">
        <ele>30</ele>
        <time>2014-03-06T17:10:24Z</time>
      </trkpt>
      <trkpt lat="47.20906" lon="-1.50555">
        <ele>30</ele>
        <time>2014-03-06T17:10:31Z</time>
      </trkpt>
      <trkpt lat="47.20896" lon="-1.5052">
        <ele>30</ele>
        <time>2014-03-06T17:10:35Z</time>
      </trkpt>
      <trkpt lat="47.20888" lon="-1.50488">
        <ele>29</ele>
        <time>2014-03-06T17:10:39Z</time>
      </trkpt>
      <trkpt lat="47.20882" lon="-1.50465">
        <ele>29</ele>
        <time>2014-03-06T17:10:42Z</time>
      </trkpt>
      <trkpt lat="47.20871" lon="-1.50438">
        <ele>28</ele>
        <time>2014-03-06T17:10:46Z</time>
      </trkpt>
      <trkpt lat="47.20858" lon="-1.50437">
        <ele>28</ele>
        <time>2014-03-06T17:10:48Z</time>
      </trkpt>
      <trkpt lat="47.20829" lon="-1.50442">
        <ele>29</ele>
        <time>2014-03-06T17:10:54Z</time>
      </trkpt>
      <trkpt lat="47.20809" lon="-1.50442">
        <ele>30</ele>
        <time>2014-03-06T17:10:58Z</time>
      </trkpt>
      <trkpt lat="47.20788" lon="-1.50439">
        <ele>30</ele>
        <time>2014-03-06T17:11:02Z</time>
      </trkpt>
      <trkpt lat="47.20779" lon="-1.50439">
        <ele>30</ele>
        <time>2014-03-06T17:11:04Z</time>
      </trkpt>
      <trkpt lat="47.20751" lon="-1.50441">
        <ele>30</ele>
        <time>2014-03-06T17:11:10Z</time>
      </trkpt>
      <trkpt lat="47.20738" lon="-1.50438">
        <ele>29</ele>
        <time>2014-03-06T17:11:14Z</time>
      </trkpt>
      <trkpt lat="47.20719" lon="-1.50437">
        <ele>30</ele>
        <time>2014-03-06T17:11:18Z</time>
      </trkpt>
      <trkpt lat="47.20693" lon="-1.50435">
        <ele>31</ele>
        <time>2014-03-06T17:11:22Z</time>
      </trkpt>
      <trkpt lat="47.20677" lon="-1.50436">
        <ele>31</ele>
        <time>2014-03-06T17:11:24Z</time>
      </trkpt>
      <trkpt lat="47.20638" lon="-1.50457">
        <ele>30</ele>
        <time>2014-03-06T17:11:31Z</time>
      </trkpt>
      <trkpt lat="47.2061" lon="-1.50458">
        <ele>35</ele>
        <time>2014-03-06T17:11:36Z</time>
      </trkpt>
      <trkpt lat="47.20588" lon="-1.50463">
        <ele>32</ele>
        <time>2014-03-06T17:11:40Z</time>
      </trkpt>
      <trkpt lat="47.20559" lon="-1.50455">
        <ele>31</ele>
        <time>2014-03-06T17:11:44Z</time>
      </trkpt>
      <trkpt lat="47.20539" lon="-1.50452">
        <ele>29</ele>
        <time>2014-03-06T17:11:47Z</time>
      </trkpt>
      <trkpt lat="47.20513" lon="-1.50446">
        <ele>30</ele>
        <time>2014-03-06T17:11:51Z</time>
      </trkpt>
      <trkpt lat="47.20484" lon="-1.50442">
        <ele>30</ele>
        <time>2014-03-06T17:11:55Z</time>
      </trkpt>
      <trkpt lat="47.20456" lon="-1.50432">
        <ele>31</ele>
        <time>2014-03-06T17:11:59Z</time>
      </trkpt>
      <trkpt lat="47.20433" lon="-1.50416">
        <ele>32</ele>
        <time>2014-03-06T17:12:03Z</time>
      </trkpt>
      <trkpt lat="47.20421" lon="-1.50407">
        <ele>32</ele>
        <time>2014-03-06T17:12:05Z</time>
      </trkpt>
      <trkpt lat="47.20386" lon="-1.50383">
        <ele>31</ele>
        <time>2014-03-06T17:12:11Z</time>
      </trkpt>
      <trkpt lat="47.20352" lon="-1.50361">
        <ele>31</ele>
        <time>2014-03-06T17:12:16Z</time>
      </trkpt>
      <trkpt lat="47.20334" lon="-1.5035">
        <ele>32</ele>
        <time>2014-03-06T17:12:19Z</time>
      </trkpt>
      <trkpt lat="47.20311" lon="-1.50335">
        <ele>30</ele>
        <time>2014-03-06T17:12:23Z</time>
      </trkpt>
      <trkpt lat="47.2029" lon="-1.50311">
        <ele>30</ele>
        <time>2014-03-06T17:12:27Z</time>
      </trkpt>
      <trkpt lat="47.20272" lon="-1.50292">
        <ele>32</ele>
        <time>2014-03-06T17:12:30Z</time>
      </trkpt>
      <trkpt lat="47.20244" lon="-1.50261">
        <ele>32</ele>
        <time>2014-03-06T17:12:35Z</time>
      </trkpt>
      <trkpt lat="47.20216" lon="-1.5023">
        <ele>32</ele>
        <time>2014-03-06T17:12:40Z</time>
      </trkpt>
      <trkpt lat="47.20199" lon="-1.50212">
        <ele>31</ele>
        <time>2014-03-06T17:12:43Z</time>
      </trkpt>
      <trkpt lat="47.20176" lon="-1.50187">
        <ele>32</ele>
        <time>2014-03-06T17:12:47Z</time>
      </trkpt>
      <trkpt lat="47.20154" lon="-1.50163">
        <ele>32</ele>
        <time>2014-03-06T17:12:51Z</time>
      </trkpt>
      <trkpt lat="47.20131" lon="-1.50139">
        <ele>32</ele>
        <time>2014-03-06T17:12:55Z</time>
      </trkpt>
      <trkpt lat="47.20113" lon="-1.50123">
        <ele>32</ele>
        <time>2014-03-06T17:12:58Z</time>
      </trkpt>
      <trkpt lat="47.20078" lon="-1.50105">
        <ele>33</ele>
        <time>2014-03-06T17:13:03Z</time>
      </trkpt>
      <trkpt lat="47.20051" lon="-1.50089">
        <ele>33</ele>
        <time>2014-03-06T17:13:07Z</time>
      </trkpt>
      <trkpt lat="47.20023" lon="-1.50077">
        <ele>32</ele>
        <time>2014-03-06T17:13:11Z</time>
      </trkpt>
      <trkpt lat="47.19995" lon="-1.50062">
        <ele>33</ele>
        <time>2014-03-06T17:13:15Z</time>
      </trkpt>
      <trkpt lat="47.19967" lon="-1.50048">
        <ele>33</ele>
        <time>2014-03-06T17:13:19Z</time>
      </trkpt>
      <trkpt lat="47.19945" lon="-1.50031">
        <ele>32</ele>
        <time>2014-03-06T17:13:23Z</time>
      </trkpt>
      <trkpt lat="47.19922" lon="-1.5001">
        <ele>33</ele>
        <time>2014-03-06T17:13:27Z</time>
      </trkpt>
      <trkpt lat="47.19903" lon="-1.49974">
        <ele>32</ele>
        <time>2014-03-06T17:13:31Z</time>
      </trkpt>
      <trkpt lat="47.19881" lon="-1.49948">
        <ele>31</ele>
        <time>2014-03-06T17:13:35Z</time>
      </trkpt>
      <trkpt lat="47.19853" lon="-1.49932">
        <ele>31</ele>
        <time>2014-03-06T17:13:40Z</time>
      </trkpt>
      <trkpt lat="47.1985" lon="-1.4993">
        <ele>31</ele>
        <time>2014-03-06T17:13:41Z</time>
      </trkpt>
      <trkpt lat="47.19819" lon="-1.49919">
        <ele>32</ele>
        <time>2014-03-06T17:13:47Z</time>
      </trkpt>
      <trkpt lat="47.19797" lon="-1.49917">
        <ele>30</ele>
        <time>2014-03-06T17:13:50Z</time>
      </trkpt>
      <trkpt lat="47.19763" lon="-1.499">
        <ele>32</ele>
        <time>2014-03-06T17:13:55Z</time>
      </trkpt>
      <trkpt lat="47.19737" lon="-1.49891">
        <ele>33</ele>
        <time>2014-03-06T17:13:59Z</time>
      </trkpt>
      <trkpt lat="47.19706" lon="-1.49882">
        <ele>31</ele>
        <time>2014-03-06T17:14:03Z</time>
      </trkpt>
      <trkpt lat="47.19678" lon="-1.49873">
        <ele>32</ele>
        <time>2014-03-06T17:14:07Z</time>
      </trkpt>
      <trkpt lat="47.19649" lon="-1.49865">
        <ele>30</ele>
        <time>2014-03-06T17:14:11Z</time>
      </trkpt>
      <trkpt lat="47.1963" lon="-1.49859">
        <ele>30</ele>
        <time>2014-03-06T17:14:14Z</time>
      </trkpt>
      <trkpt lat="47.19594" lon="-1.49847">
        <ele>32</ele>
        <time>2014-03-06T17:14:19Z</time>
      </trkpt>
      <trkpt lat="47.19565" lon="-1.49837">
        <ele>34</ele>
        <time>2014-03-06T17:14:23Z</time>
      </trkpt>
      <trkpt lat="47.19539" lon="-1.49827">
        <ele>36</ele>
        <time>2014-03-06T17:14:27Z</time>
      </trkpt>
      <trkpt lat="47.19504" lon="-1.49815">
        <ele>36</ele>
        <time>2014-03-06T17:14:32Z</time>
      </trkpt>
      <trkpt lat="47.19483" lon="-1.49809">
        <ele>35</ele>
        <time>2014-03-06T17:14:35Z</time>
      </trkpt>
      <trkpt lat="47.19445" lon="-1.49802">
        <ele>35</ele>
        <time>2014-03-06T17:14:40Z</time>
      </trkpt>
      <trkpt lat="47.19423" lon="-1.49794">
        <ele>36</ele>
        <time>2014-03-06T17:14:43Z</time>
      </trkpt>
      <trkpt lat="47.19396" lon="-1.49782">
        <ele>35</ele>
        <time>2014-03-06T17:14:47Z</time>
      </trkpt>
      <trkpt lat="47.19361" lon="-1.49776">
        <ele>32</ele>
        <time>2014-03-06T17:14:52Z</time>
      </trkpt>
      <trkpt lat="47.19346" lon="-1.49775">
        <ele>31</ele>
        <time>2014-03-06T17:14:54Z</time>
      </trkpt>
      <trkpt lat="47.19321" lon="-1.49767">
        <ele>31</ele>
        <time>2014-03-06T17:14:57Z</time>
      </trkpt>
      <trkpt lat="47.19299" lon="-1.49753">
        <ele>28</ele>
        <time>2014-03-06T17:15:01Z</time>
      </trkpt>
      <trkpt lat="47.19248" lon="-1.49729">
        <ele>33</ele>
        <time>2014-03-06T17:15:08Z</time>
      </trkpt>
      <trkpt lat="47.1923" lon="-1.49717">
        <ele>33</ele>
        <time>2014-03-06T17:15:11Z</time>
      </trkpt>
      <trkpt lat="47.19208" lon="-1.49702">
        <ele>32</ele>
        <time>2014-03-06T17:15:15Z</time>
      </trkpt>
      <trkpt lat="47.19198" lon="-1.49689">
        <ele>33</ele>
        <time>2014-03-06T17:15:18Z</time>
      </trkpt>
      <trkpt lat="47.19182" lon="-1.49674">
        <ele>37</ele>
        <time>2014-03-06T17:15:22Z</time>
      </trkpt>
      <trkpt lat="47.19143" lon="-1.49642">
        <ele>36</ele>
        <time>2014-03-06T17:15:29Z</time>
      </trkpt>
      <trkpt lat="47.19123" lon="-1.49622">
        <ele>36</ele>
        <time>2014-03-06T17:15:32Z</time>
      </trkpt>
      <trkpt lat="47.191" lon="-1.49598">
        <ele>36</ele>
        <time>2014-03-06T17:15:36Z</time>
      </trkpt>
      <trkpt lat="47.19077" lon="-1.49576">
        <ele>37</ele>
        <time>2014-03-06T17:15:40Z</time>
      </trkpt>
      <trkpt lat="47.19055" lon="-1.49557">
        <ele>36</ele>
        <time>2014-03-06T17:15:44Z</time>
      </trkpt>
      <trkpt lat="47.1903" lon="-1.49535">
        <ele>36</ele>
        <time>2014-03-06T17:15:48Z</time>
      </trkpt>
      <trkpt lat="47.19005" lon="-1.49511">
        <ele>40</ele>
        <time>2014-03-06T17:15:52Z</time>
      </trkpt>
      <trkpt lat="47.18981" lon="-1.49486">
        <ele>40</ele>
        <time>2014-03-06T17:15:56Z</time>
      </trkpt>
      <trkpt lat="47.18958" lon="-1.49467">
        <ele>40</ele>
        <time>2014-03-06T17:16:00Z</time>
      </trkpt>
      <trkpt lat="47.1894" lon="-1.49452">
        <ele>39</ele>
        <time>2014-03-06T17:16:04Z</time>
      </trkpt>
      <trkpt lat="47.1892" lon="-1.49435">
        <ele>38</ele>
        <time>2014-03-06T17:16:08Z</time>
      </trkpt>
      <trkpt lat="47.18901" lon="-1.49418">
        <ele>36</ele>
        <time>2014-03-06T17:16:12Z</time>
      </trkpt>
      <trkpt lat="47.18882" lon="-1.49402">
        <ele>34</ele>
        <time>2014-03-06T17:16:16Z</time>
      </trkpt>
      <trkpt lat="47.18864" lon="-1.49384">
        <ele>35</ele>
        <time>2014-03-06T17:16:20Z</time>
      </trkpt>
      <trkpt lat="47.18847" lon="-1.49365">
        <ele>35</ele>
        <time>2014-03-06T17:16:24Z</time>
      </trkpt>
      <trkpt lat="47.18838" lon="-1.49358">
        <ele>36</ele>
        <time>2014-03-06T17:16:26Z</time>
      </trkpt>
      <trkpt lat="47.1883" lon="-1.49325">
        <ele>36</ele>
        <time>2014-03-06T17:16:32Z</time>
      </trkpt>
      <trkpt lat="47.18829" lon="-1.49295">
        <ele>34</ele>
        <time>2014-03-06T17:16:36Z</time>
      </trkpt>
      <trkpt lat="47.18828" lon="-1.49267">
        <ele>35</ele>
        <time>2014-03-06T17:16:40Z</time>
      </trkpt>
      <trkpt lat="47.18822" lon="-1.49251">
        <ele>36</ele>
        <time>2014-03-06T17:16:43Z</time>
      </trkpt>
      <trkpt lat="47.18812" lon="-1.49266">
        <ele>40</ele>
        <time>2014-03-06T17:16:50Z</time>
      </trkpt>
      <trkpt lat="47.18815" lon="-1.49296">
        <ele>41</ele>
        <time>2014-03-06T17:16:54Z</time>
      </trkpt>
      <trkpt lat="47.18816" lon="-1.49325">
        <ele>41</ele>
        <time>2014-03-06T17:16:58Z</time>
      </trkpt>
      <trkpt lat="47.18817" lon="-1.49339">
        <ele>40</ele>
        <time>2014-03-06T17:17:01Z</time>
      </trkpt>
      <trkpt lat="47.18822" lon="-1.49357">
        <ele>39</ele>
        <time>2014-03-06T17:17:04Z</time>
      </trkpt>
      <trkpt lat="47.18817" lon="-1.49407">
        <ele>41</ele>
        <time>2014-03-06T17:17:09Z</time>
      </trkpt>
      <trkpt lat="47.18824" lon="-1.49465">
        <ele>41</ele>
        <time>2014-03-06T17:17:14Z</time>
      </trkpt>
      <trkpt lat="47.18828" lon="-1.49513">
        <ele>39</ele>
        <time>2014-03-06T17:17:18Z</time>
      </trkpt>
      <trkpt lat="47.18829" lon="-1.49561">
        <ele>36</ele>
        <time>2014-03-06T17:17:22Z</time>
      </trkpt>
      <trkpt lat="47.1883" lon="-1.49594">
        <ele>38</ele>
        <time>2014-03-06T17:17:25Z</time>
      </trkpt>
      <trkpt lat="47.18833" lon="-1.4964">
        <ele>37</ele>
        <time>2014-03-06T17:17:29Z</time>
      </trkpt>
      <trkpt lat="47.18839" lon="-1.49707">
        <ele>36</ele>
        <time>2014-03-06T17:17:35Z</time>
      </trkpt>
      <trkpt lat="47.18841" lon="-1.49752">
        <ele>37</ele>
        <time>2014-03-06T17:17:39Z</time>
      </trkpt>
      <trkpt lat="47.18842" lon="-1.49798">
        <ele>38</ele>
        <time>2014-03-06T17:17:43Z</time>
      </trkpt>
      <trkpt lat="47.18847" lon="-1.49845">
        <ele>37</ele>
        <time>2014-03-06T17:17:47Z</time>
      </trkpt>
      <trkpt lat="47.1885" lon="-1.49891">
        <ele>36</ele>
        <time>2014-03-06T17:17:51Z</time>
      </trkpt>
      <trkpt lat="47.18853" lon="-1.4993">
        <ele>38</ele>
        <time>2014-03-06T17:17:55Z</time>
      </trkpt>
      <trkpt lat="47.18856" lon="-1.49968">
        <ele>39</ele>
        <time>2014-03-06T17:17:59Z</time>
      </trkpt>
      <trkpt lat="47.18859" lon="-1.50011">
        <ele>39</ele>
        <time>2014-03-06T17:18:03Z</time>
      </trkpt>
      <trkpt lat="47.18862" lon="-1.50055">
        <ele>36</ele>
        <time>2014-03-06T17:18:07Z</time>
      </trkpt>
      <trkpt lat="47.18866" lon="-1.50111">
        <ele>34</ele>
        <time>2014-03-06T17:18:12Z</time>
      </trkpt>
      <trkpt lat="47.1887" lon="-1.50145">
        <ele>32</ele>
        <time>2014-03-06T17:18:15Z</time>
      </trkpt>
      <trkpt lat="47.18872" lon="-1.50167">
        <ele>33</ele>
        <time>2014-03-06T17:18:17Z</time>
      </trkpt>
      <trkpt lat="47.18874" lon="-1.50229">
        <ele>35</ele>
        <time>2014-03-06T17:18:23Z</time>
      </trkpt>
      <trkpt lat="47.18877" lon="-1.50266">
        <ele>37</ele>
        <time>2014-03-06T17:18:27Z</time>
      </trkpt>
      <trkpt lat="47.18878" lon="-1.50288">
        <ele>38</ele>
        <time>2014-03-06T17:18:30Z</time>
      </trkpt>
      <trkpt lat="47.1888" lon="-1.50315">
        <ele>41</ele>
        <time>2014-03-06T17:18:34Z</time>
      </trkpt>
      <trkpt lat="47.18884" lon="-1.50371">
        <ele>40</ele>
        <time>2014-03-06T17:18:40Z</time>
      </trkpt>
      <trkpt lat="47.18885" lon="-1.50417">
        <ele>40</ele>
        <time>2014-03-06T17:18:44Z</time>
      </trkpt>
      <trkpt lat="47.18885" lon="-1.50429">
        <ele>40</ele>
        <time>2014-03-06T17:18:45Z</time>
      </trkpt>
      <trkpt lat="47.18886" lon="-1.50513">
        <ele>35</ele>
        <time>2014-03-06T17:18:52Z</time>
      </trkpt>
      <trkpt lat="47.18895" lon="-1.50553">
        <ele>37</ele>
        <time>2014-03-06T17:18:56Z</time>
      </trkpt>
      <trkpt lat="47.18895" lon="-1.50599">
        <ele>38</ele>
        <time>2014-03-06T17:19:00Z</time>
      </trkpt>
      <trkpt lat="47.18897" lon="-1.50632">
        <ele>38</ele>
        <time>2014-03-06T17:19:03Z</time>
      </trkpt>
      <trkpt lat="47.18897" lon="-1.50679">
        <ele>37</ele>
        <time>2014-03-06T17:19:07Z</time>
      </trkpt>
      <trkpt lat="47.18903" lon="-1.50738">
        <ele>36</ele>
        <time>2014-03-06T17:19:12Z</time>
      </trkpt>
      <trkpt lat="47.18903" lon="-1.50769">
        <ele>36</ele>
        <time>2014-03-06T17:19:15Z</time>
      </trkpt>
      <trkpt lat="47.18904" lon="-1.50793">
        <ele>36</ele>
        <time>2014-03-06T17:19:17Z</time>
      </trkpt>
      <trkpt lat="47.18909" lon="-1.50851">
        <ele>37</ele>
        <time>2014-03-06T17:19:23Z</time>
      </trkpt>
      <trkpt lat="47.18912" lon="-1.50883">
        <ele>35</ele>
        <time>2014-03-06T17:19:27Z</time>
      </trkpt>
      <trkpt lat="47.18913" lon="-1.50907">
        <ele>38</ele>
        <time>2014-03-06T17:19:30Z</time>
      </trkpt>
      <trkpt lat="47.18916" lon="-1.50948">
        <ele>36</ele>
        <time>2014-03-06T17:19:36Z</time>
      </trkpt>
      <trkpt lat="47.18919" lon="-1.5097">
        <ele>36</ele>
        <time>2014-03-06T17:19:41Z</time>
      </trkpt>
      <trkpt lat="47.1892" lon="-1.50996">
        <ele>36</ele>
        <time>2014-03-06T17:19:45Z</time>
      </trkpt>
      <trkpt lat="47.18923" lon="-1.51034">
        <ele>35</ele>
        <time>2014-03-06T17:19:49Z</time>
      </trkpt>
      <trkpt lat="47.18926" lon="-1.51073">
        <ele>34</ele>
        <time>2014-03-06T17:19:53Z</time>
      </trkpt>
      <trkpt lat="47.18926" lon="-1.51099">
        <ele>33</ele>
        <time>2014-03-06T17:19:56Z</time>
      </trkpt>
      <trkpt lat="47.18932" lon="-1.51164">
        <ele>33</ele>
        <time>2014-03-06T17:20:01Z</time>
      </trkpt>
      <trkpt lat="47.18935" lon="-1.5122">
        <ele>32</ele>
        <time>2014-03-06T17:20:05Z</time>
      </trkpt>
      <trkpt lat="47.18938" lon="-1.51273">
        <ele>32</ele>
        <time>2014-03-06T17:20:09Z</time>
      </trkpt>
      <trkpt lat="47.18941" lon="-1.51324">
        <ele>32</ele>
        <time>2014-03-06T17:20:13Z</time>
      </trkpt>
      <trkpt lat="47.18944" lon="-1.51373">
        <ele>34</ele>
        <time>2014-03-06T17:20:17Z</time>
      </trkpt>
      <trkpt lat="47.18947" lon="-1.51421">
        <ele>36</ele>
        <time>2014-03-06T17:20:21Z</time>
      </trkpt>
      <trkpt lat="47.18951" lon="-1.51449">
        <ele>38</ele>
        <time>2014-03-06T17:20:23Z</time>
      </trkpt>
      <trkpt lat="47.18957" lon="-1.51538">
        <ele>37</ele>
        <time>2014-03-06T17:20:30Z</time>
      </trkpt>
      <trkpt lat="47.1896" lon="-1.51588">
        <ele>36</ele>
        <time>2014-03-06T17:20:34Z</time>
      </trkpt>
      <trkpt lat="47.18962" lon="-1.51623">
        <ele>39</ele>
        <time>2014-03-06T17:20:37Z</time>
      </trkpt>
      <trkpt lat="47.18966" lon="-1.51684">
        <ele>40</ele>
        <time>2014-03-06T17:20:42Z</time>
      </trkpt>
      <trkpt lat="47.18971" lon="-1.51718">
        <ele>40</ele>
        <time>2014-03-06T17:20:45Z</time>
      </trkpt>
      <trkpt lat="47.18972" lon="-1.51748">
        <ele>40</ele>
        <time>2014-03-06T17:20:50Z</time>
      </trkpt>
      <trkpt lat="47.18975" lon="-1.51778">
        <ele>37</ele>
        <time>2014-03-06T17:20:54Z</time>
      </trkpt>
      <trkpt lat="47.18972" lon="-1.51805">
        <ele>37</ele>
        <time>2014-03-06T17:20:57Z</time>
      </trkpt>
      <trkpt lat="47.18975" lon="-1.5184">
        <ele>38</ele>
        <time>2014-03-06T17:21:01Z</time>
      </trkpt>
      <trkpt lat="47.18981" lon="-1.51857">
        <ele>36</ele>
        <time>2014-03-06T17:21:03Z</time>
      </trkpt>
      <trkpt lat="47.18993" lon="-1.51926">
        <ele>40</ele>
        <time>2014-03-06T17:21:10Z</time>
      </trkpt>
      <trkpt lat="47.19002" lon="-1.51958">
        <ele>39</ele>
        <time>2014-03-06T17:21:13Z</time>
      </trkpt>
      <trkpt lat="47.19014" lon="-1.52002">
        <ele>39</ele>
        <time>2014-03-06T17:21:17Z</time>
      </trkpt>
      <trkpt lat="47.19021" lon="-1.52022">
        <ele>39</ele>
        <time>2014-03-06T17:21:19Z</time>
      </trkpt>
      <trkpt lat="47.19045" lon="-1.5209">
        <ele>39</ele>
        <time>2014-03-06T17:21:25Z</time>
      </trkpt>
      <trkpt lat="47.19059" lon="-1.52133">
        <ele>37</ele>
        <time>2014-03-06T17:21:29Z</time>
      </trkpt>
      <trkpt lat="47.19074" lon="-1.5218">
        <ele>35</ele>
        <time>2014-03-06T17:21:33Z</time>
      </trkpt>
      <trkpt lat="47.19083" lon="-1.52202">
        <ele>35</ele>
        <time>2014-03-06T17:21:35Z</time>
      </trkpt>
      <trkpt lat="47.19112" lon="-1.52286">
        <ele>35</ele>
        <time>2014-03-06T17:21:42Z</time>
      </trkpt>
      <trkpt lat="47.19123" lon="-1.52319">
        <ele>34</ele>
        <time>2014-03-06T17:21:45Z</time>
      </trkpt>
      <trkpt lat="47.19137" lon="-1.5236">
        <ele>32</ele>
        <time>2014-03-06T17:21:49Z</time>
      </trkpt>
      <trkpt lat="47.19146" lon="-1.52379">
        <ele>32</ele>
        <time>2014-03-06T17:21:52Z</time>
      </trkpt>
      <trkpt lat="47.1915" lon="-1.52399">
        <ele>32</ele>
        <time>2014-03-06T17:21:58Z</time>
      </trkpt>
      <trkpt lat="47.19159" lon="-1.52426">
        <ele>32</ele>
        <time>2014-03-06T17:22:15Z</time>
      </trkpt>
      <trkpt lat="47.19171" lon="-1.52453">
        <ele>32</ele>
        <time>2014-03-06T17:22:19Z</time>
      </trkpt>
      <trkpt lat="47.19183" lon="-1.52494">
        <ele>32</ele>
        <time>2014-03-06T17:22:23Z</time>
      </trkpt>
      <trkpt lat="47.19201" lon="-1.52547">
        <ele>31</ele>
        <time>2014-03-06T17:22:28Z</time>
      </trkpt>
      <trkpt lat="47.19213" lon="-1.52581">
        <ele>31</ele>
        <time>2014-03-06T17:22:31Z</time>
      </trkpt>
      <trkpt lat="47.19229" lon="-1.52625">
        <ele>29</ele>
        <time>2014-03-06T17:22:35Z</time>
      </trkpt>
      <trkpt lat="47.19238" lon="-1.52658">
        <ele>29</ele>
        <time>2014-03-06T17:22:38Z</time>
      </trkpt>
      <trkpt lat="47.19259" lon="-1.52719">
        <ele>28</ele>
        <time>2014-03-06T17:22:44Z</time>
      </trkpt>
      <trkpt lat="47.19275" lon="-1.52763">
        <ele>28</ele>
        <time>2014-03-06T17:22:48Z</time>
      </trkpt>
      <trkpt lat="47.19289" lon="-1.52807">
        <ele>28</ele>
        <time>2014-03-06T17:22:52Z</time>
      </trkpt>
      <trkpt lat="47.19304" lon="-1.52851">
        <ele>27</ele>
        <time>2014-03-06T17:22:56Z</time>
      </trkpt>
      <trkpt lat="47.1932" lon="-1.52902">
        <ele>23</ele>
        <time>2014-03-06T17:23:00Z</time>
      </trkpt>
      <trkpt lat="47.19337" lon="-1.52954">
        <ele>22</ele>
        <time>2014-03-06T17:23:04Z</time>
      </trkpt>
      <trkpt lat="47.1936" lon="-1.53016">
        <ele>18</ele>
        <time>2014-03-06T17:23:09Z</time>
      </trkpt>
      <trkpt lat="47.19365" lon="-1.53027">
        <ele>18</ele>
        <time>2014-03-06T17:23:10Z</time>
      </trkpt>
      <trkpt lat="47.1939" lon="-1.53108">
        <ele>19</ele>
        <time>2014-03-06T17:23:16Z</time>
      </trkpt>
      <trkpt lat="47.19407" lon="-1.53153">
        <ele>19</ele>
        <time>2014-03-06T17:23:20Z</time>
      </trkpt>
      <trkpt lat="47.19419" lon="-1.53199">
        <ele>20</ele>
        <time>2014-03-06T17:23:24Z</time>
      </trkpt>
      <trkpt lat="47.1943" lon="-1.53235">
        <ele>21</ele>
        <time>2014-03-06T17:23:27Z</time>
      </trkpt>
      <trkpt lat="47.19444" lon="-1.53272">
        <ele>22</ele>
        <time>2014-03-06T17:23:30Z</time>
      </trkpt>
      <trkpt lat="47.19471" lon="-1.53341">
        <ele>24</ele>
        <time>2014-03-06T17:23:36Z</time>
      </trkpt>
      <trkpt lat="47.19494" lon="-1.53398">
        <ele>25</ele>
        <time>2014-03-06T17:23:41Z</time>
      </trkpt>
      <trkpt lat="47.19505" lon="-1.53434">
        <ele>25</ele>
        <time>2014-03-06T17:23:44Z</time>
      </trkpt>
      <trkpt lat="47.1952" lon="-1.53471">
        <ele>28</ele>
        <time>2014-03-06T17:23:48Z</time>
      </trkpt>
      <trkpt lat="47.19533" lon="-1.53502">
        <ele>26</ele>
        <time>2014-03-06T17:23:52Z</time>
      </trkpt>
      <trkpt lat="47.19543" lon="-1.5354">
        <ele>26</ele>
        <time>2014-03-06T17:23:57Z</time>
      </trkpt>
      <trkpt lat="47.19549" lon="-1.5356">
        <ele>26</ele>
        <time>2014-03-06T17:24:00Z</time>
      </trkpt>
      <trkpt lat="47.19557" lon="-1.53594">
        <ele>29</ele>
        <time>2014-03-06T17:24:06Z</time>
      </trkpt>
      <trkpt lat="47.19563" lon="-1.53608">
        <ele>29</ele>
        <time>2014-03-06T17:24:09Z</time>
      </trkpt>
      <trkpt lat="47.1957" lon="-1.5362">
        <ele>29</ele>
        <time>2014-03-06T17:24:11Z</time>
      </trkpt>
      <trkpt lat="47.19584" lon="-1.53682">
        <ele>30</ele>
        <time>2014-03-06T17:24:17Z</time>
      </trkpt>
      <trkpt lat="47.19596" lon="-1.53717">
        <ele>32</ele>
        <time>2014-03-06T17:24:21Z</time>
      </trkpt>
      <trkpt lat="47.19601" lon="-1.53742">
        <ele>30</ele>
        <time>2014-03-06T17:24:25Z</time>
      </trkpt>
      <trkpt lat="47.19609" lon="-1.53768">
        <ele>31</ele>
        <time>2014-03-06T17:24:29Z</time>
      </trkpt>
      <trkpt lat="47.1962" lon="-1.53802">
        <ele>29</ele>
        <time>2014-03-06T17:24:33Z</time>
      </trkpt>
      <trkpt lat="47.19627" lon="-1.53818">
        <ele>28</ele>
        <time>2014-03-06T17:24:35Z</time>
      </trkpt>
      <trkpt lat="47.19652" lon="-1.53872">
        <ele>28</ele>
        <time>2014-03-06T17:24:42Z</time>
      </trkpt>
      <trkpt lat="47.19661" lon="-1.53896">
        <ele>26</ele>
        <time>2014-03-06T17:24:45Z</time>
      </trkpt>
      <trkpt lat="47.19672" lon="-1.53921">
        <ele>26</ele>
        <time>2014-03-06T17:24:49Z</time>
      </trkpt>
      <trkpt lat="47.19677" lon="-1.53931">
        <ele>26</ele>
        <time>2014-03-06T17:24:51Z</time>
      </trkpt>
      <trkpt lat="47.19698" lon="-1.53985">
        <ele>22</ele>
        <time>2014-03-06T17:24:58Z</time>
      </trkpt>
      <trkpt lat="47.19702" lon="-1.53999">
        <ele>23</ele>
        <time>2014-03-06T17:25:01Z</time>
      </trkpt>
      <trkpt lat="47.19707" lon="-1.54017">
        <ele>25</ele>
        <time>2014-03-06T17:25:05Z</time>
      </trkpt>
      <trkpt lat="47.19713" lon="-1.54033">
        <ele>25</ele>
        <time>2014-03-06T17:25:08Z</time>
      </trkpt>
      <trkpt lat="47.19727" lon="-1.54064">
        <ele>24</ele>
        <time>2014-03-06T17:25:12Z</time>
      </trkpt>
      <trkpt lat="47.19755" lon="-1.54105">
        <ele>24</ele>
        <time>2014-03-06T17:25:18Z</time>
      </trkpt>
      <trkpt lat="47.19778" lon="-1.54117">
        <ele>24</ele>
        <time>2014-03-06T17:25:23Z</time>
      </trkpt>
      <trkpt lat="47.19786" lon="-1.54129">
        <ele>20</ele>
        <time>2014-03-06T17:25:31Z</time>
      </trkpt>
      <trkpt lat="47.19782" lon="-1.54142">
        <ele>20</ele>
        <time>2014-03-06T17:25:34Z</time>
      </trkpt>
      <trkpt lat="47.19776" lon="-1.54164">
        <ele>20</ele>
        <time>2014-03-06T17:25:38Z</time>
      </trkpt>
      <trkpt lat="47.19774" lon="-1.54189">
        <ele>18</ele>
        <time>2014-03-06T17:25:42Z</time>
      </trkpt>
      <trkpt lat="47.19781" lon="-1.54201">
        <ele>18</ele>
        <time>2014-03-06T17:26:05Z</time>
      </trkpt>
      <trkpt lat="47.19793" lon="-1.54208">
        <ele>18</ele>
        <time>2014-03-06T17:26:10Z</time>
      </trkpt>
      <trkpt lat="47.19804" lon="-1.54219">
        <ele>18</ele>
        <time>2014-03-06T17:26:13Z</time>
      </trkpt>
      <trkpt lat="47.19823" lon="-1.54234">
        <ele>18</ele>
        <time>2014-03-06T17:26:17Z</time>
      </trkpt>
      <trkpt lat="47.19846" lon="-1.54249">
        <ele>19</ele>
        <time>2014-03-06T17:26:21Z</time>
      </trkpt>
      <trkpt lat="47.1987" lon="-1.54266">
        <ele>18</ele>
        <time>2014-03-06T17:26:26Z</time>
      </trkpt>
      <trkpt lat="47.19882" lon="-1.54277">
        <ele>18</ele>
        <time>2014-03-06T17:26:28Z</time>
      </trkpt>
      <trkpt lat="47.19908" lon="-1.54295">
        <ele>17</ele>
        <time>2014-03-06T17:26:33Z</time>
      </trkpt>
      <trkpt lat="47.19928" lon="-1.54309">
        <ele>18</ele>
        <time>2014-03-06T17:26:37Z</time>
      </trkpt>
      <trkpt lat="47.1995" lon="-1.54322">
        <ele>17</ele>
        <time>2014-03-06T17:26:41Z</time>
      </trkpt>
      <trkpt lat="47.19973" lon="-1.54338">
        <ele>16</ele>
        <time>2014-03-06T17:26:45Z</time>
      </trkpt>
      <trkpt lat="47.19995" lon="-1.54353">
        <ele>16</ele>
        <time>2014-03-06T17:26:49Z</time>
      </trkpt>
      <trkpt lat="47.20017" lon="-1.54369">
        <ele>15</ele>
        <time>2014-03-06T17:26:53Z</time>
      </trkpt>
      <trkpt lat="47.2003" lon="-1.54377">
        <ele>13</ele>
        <time>2014-03-06T17:26:57Z</time>
      </trkpt>
      <trkpt lat="47.20048" lon="-1.5439">
        <ele>12</ele>
        <time>2014-03-06T17:27:02Z</time>
      </trkpt>
      <trkpt lat="47.20067" lon="-1.54402">
        <ele>9</ele>
        <time>2014-03-06T17:27:06Z</time>
      </trkpt>
      <trkpt lat="47.2009" lon="-1.54415">
        <ele>9</ele>
        <time>2014-03-06T17:27:11Z</time>
      </trkpt>
      <trkpt lat="47.20092" lon="-1.54416">
        <ele>10</ele>
        <time>2014-03-06T17:27:12Z</time>
      </trkpt>
      <trkpt lat="47.20108" lon="-1.54443">
        <ele>13</ele>
        <time>2014-03-06T17:27:21Z</time>
      </trkpt>
      <trkpt lat="47.2011" lon="-1.54466">
        <ele>14</ele>
        <time>2014-03-06T17:27:24Z</time>
      </trkpt>
      <trkpt lat="47.20105" lon="-1.54478">
        <ele>15</ele>
        <time>2014-03-06T17:27:26Z</time>
      </trkpt>
      <trkpt lat="47.20095" lon="-1.54537">
        <ele>16</ele>
        <time>2014-03-06T17:27:33Z</time>
      </trkpt>
      <trkpt lat="47.20097" lon="-1.54558">
        <ele>16</ele>
        <time>2014-03-06T17:27:35Z</time>
      </trkpt>
      <trkpt lat="47.20115" lon="-1.54607">
        <ele>17</ele>
        <time>2014-03-06T17:27:41Z</time>
      </trkpt>
      <trkpt lat="47.2013" lon="-1.54637">
        <ele>19</ele>
        <time>2014-03-06T17:27:44Z</time>
      </trkpt>
      <trkpt lat="47.2014" lon="-1.54658">
        <ele>19</ele>
        <time>2014-03-06T17:27:46Z</time>
      </trkpt>
      <trkpt lat="47.2017" lon="-1.54717">
        <ele>20</ele>
        <time>2014-03-06T17:27:52Z</time>
      </trkpt>
      <trkpt lat="47.20179" lon="-1.54738">
        <ele>19</ele>
        <time>2014-03-06T17:27:54Z</time>
      </trkpt>
      <trkpt lat="47.20217" lon="-1.54804">
        <ele>18</ele>
        <time>2014-03-06T17:28:01Z</time>
      </trkpt>
      <trkpt lat="47.2023" lon="-1.54833">
        <ele>19</ele>
        <time>2014-03-06T17:28:04Z</time>
      </trkpt>
      <trkpt lat="47.20236" lon="-1.54853">
        <ele>19</ele>
        <time>2014-03-06T17:28:06Z</time>
      </trkpt>
      <trkpt lat="47.20269" lon="-1.54923">
        <ele>20</ele>
        <time>2014-03-06T17:28:13Z</time>
      </trkpt>
      <trkpt lat="47.20281" lon="-1.54949">
        <ele>20</ele>
        <time>2014-03-06T17:28:16Z</time>
      </trkpt>
      <trkpt lat="47.20302" lon="-1.54991">
        <ele>21</ele>
        <time>2014-03-06T17:28:21Z</time>
      </trkpt>
      <trkpt lat="47.20315" lon="-1.55021">
        <ele>22</ele>
        <time>2014-03-06T17:28:25Z</time>
      </trkpt>
      <trkpt lat="47.20333" lon="-1.55054">
        <ele>21</ele>
        <time>2014-03-06T17:28:29Z</time>
      </trkpt>
      <trkpt lat="47.20344" lon="-1.55075">
        <ele>20</ele>
        <time>2014-03-06T17:28:32Z</time>
      </trkpt>
      <trkpt lat="47.2035" lon="-1.55089">
        <ele>21</ele>
        <time>2014-03-06T17:28:34Z</time>
      </trkpt>
      <trkpt lat="47.20373" lon="-1.55132">
        <ele>21</ele>
        <time>2014-03-06T17:28:41Z</time>
      </trkpt>
      <trkpt lat="47.20383" lon="-1.55145">
        <ele>20</ele>
        <time>2014-03-06T17:28:44Z</time>
      </trkpt>
      <trkpt lat="47.20395" lon="-1.55162">
        <ele>20</ele>
        <time>2014-03-06T17:28:48Z</time>
      </trkpt>
      <trkpt lat="47.20402" lon="-1.55184">
        <ele>21</ele>
        <time>2014-03-06T17:28:51Z</time>
      </trkpt>
      <trkpt lat="47.20411" lon="-1.55209">
        <ele>20</ele>
        <time>2014-03-06T17:28:54Z</time>
      </trkpt>
      <trkpt lat="47.20436" lon="-1.55254">
        <ele>19</ele>
        <time>2014-03-06T17:29:00Z</time>
      </trkpt>
      <trkpt lat="47.20446" lon="-1.55279">
        <ele>19</ele>
        <time>2014-03-06T17:29:03Z</time>
      </trkpt>
      <trkpt lat="47.20458" lon="-1.55311">
        <ele>19</ele>
        <time>2014-03-06T17:29:06Z</time>
      </trkpt>
      <trkpt lat="47.20483" lon="-1.55361">
        <ele>16</ele>
        <time>2014-03-06T17:29:13Z</time>
      </trkpt>
      <trkpt lat="47.20496" lon="-1.55385">
        <ele>17</ele>
        <time>2014-03-06T17:29:16Z</time>
      </trkpt>
      <trkpt lat="47.20508" lon="-1.55404">
        <ele>19</ele>
        <time>2014-03-06T17:29:20Z</time>
      </trkpt>
      <trkpt lat="47.20512" lon="-1.55419">
        <ele>24</ele>
        <time>2014-03-06T17:29:24Z</time>
      </trkpt>
      <trkpt lat="47.20533" lon="-1.55426">
        <ele>25</ele>
        <time>2014-03-06T17:29:28Z</time>
      </trkpt>
      <trkpt lat="47.20546" lon="-1.5544">
        <ele>24</ele>
        <time>2014-03-06T17:29:31Z</time>
      </trkpt>
      <trkpt lat="47.20546" lon="-1.55457">
        <ele>33</ele>
        <time>2014-03-06T17:29:35Z</time>
      </trkpt>
      <trkpt lat="47.20533" lon="-1.55479">
        <ele>35</ele>
        <time>2014-03-06T17:29:39Z</time>
      </trkpt>
      <trkpt lat="47.20526" lon="-1.55512">
        <ele>32</ele>
        <time>2014-03-06T17:29:45Z</time>
      </trkpt>
      <trkpt lat="47.20524" lon="-1.55547">
        <ele>31</ele>
        <time>2014-03-06T17:29:50Z</time>
      </trkpt>
      <trkpt lat="47.20523" lon="-1.55555">
        <ele>31</ele>
        <time>2014-03-06T17:29:51Z</time>
      </trkpt>
      <trkpt lat="47.20516" lon="-1.55606">
        <ele>33</ele>
        <time>2014-03-06T17:29:57Z</time>
      </trkpt>
      <trkpt lat="47.20513" lon="-1.55632">
        <ele>38</ele>
        <time>2014-03-06T17:30:02Z</time>
      </trkpt>
      <trkpt lat="47.20511" lon="-1.55639">
        <ele>38</ele>
        <time>2014-03-06T17:30:03Z</time>
      </trkpt>
      <trkpt lat="47.20509" lon="-1.55671">
        <ele>37</ele>
        <time>2014-03-06T17:30:07Z</time>
      </trkpt>
      <trkpt lat="47.20503" lon="-1.55731">
        <ele>38</ele>
        <time>2014-03-06T17:30:13Z</time>
      </trkpt>
      <trkpt lat="47.20495" lon="-1.55775">
        <ele>37</ele>
        <time>2014-03-06T17:30:18Z</time>
      </trkpt>
      <trkpt lat="47.20493" lon="-1.55809">
        <ele>37</ele>
        <time>2014-03-06T17:30:21Z</time>
      </trkpt>
      <trkpt lat="47.20491" lon="-1.55868">
        <ele>33</ele>
        <time>2014-03-06T17:30:26Z</time>
      </trkpt>
      <trkpt lat="47.20489" lon="-1.5588">
        <ele>30</ele>
        <time>2014-03-06T17:30:27Z</time>
      </trkpt>
      <trkpt lat="47.20483" lon="-1.55918">
        <ele>31</ele>
        <time>2014-03-06T17:30:32Z</time>
      </trkpt>
      <trkpt lat="47.20479" lon="-1.55949">
        <ele>33</ele>
        <time>2014-03-06T17:30:35Z</time>
      </trkpt>
      <trkpt lat="47.2048" lon="-1.56023">
        <ele>27</ele>
        <time>2014-03-06T17:30:41Z</time>
      </trkpt>
      <trkpt lat="47.20477" lon="-1.56061">
        <ele>23</ele>
        <time>2014-03-06T17:30:45Z</time>
      </trkpt>
      <trkpt lat="47.20477" lon="-1.56077">
        <ele>21</ele>
        <time>2014-03-06T17:30:47Z</time>
      </trkpt>
      <trkpt lat="47.2047" lon="-1.56133">
        <ele>24</ele>
        <time>2014-03-06T17:30:53Z</time>
      </trkpt>
      <trkpt lat="47.20465" lon="-1.56163">
        <ele>25</ele>
        <time>2014-03-06T17:30:58Z</time>
      </trkpt>
      <trkpt lat="47.20461" lon="-1.56202">
        <ele>26</ele>
        <time>2014-03-06T17:31:02Z</time>
      </trkpt>
      <trkpt lat="47.20457" lon="-1.56227">
        <ele>25</ele>
        <time>2014-03-06T17:31:06Z</time>
      </trkpt>
      <trkpt lat="47.20461" lon="-1.56245">
        <ele>25</ele>
        <time>2014-03-06T17:31:10Z</time>
      </trkpt>
      <trkpt lat="47.20477" lon="-1.56259">
        <ele>27</ele>
        <time>2014-03-06T17:31:17Z</time>
      </trkpt>
      <trkpt lat="47.20483" lon="-1.56265">
        <ele>29</ele>
        <time>2014-03-06T17:31:19Z</time>
      </trkpt>
      <trkpt lat="47.20496" lon="-1.56275">
        <ele>28</ele>
        <time>2014-03-06T17:31:23Z</time>
      </trkpt>
      <trkpt lat="47.20515" lon="-1.56288">
        <ele>34</ele>
        <time>2014-03-06T17:31:27Z</time>
      </trkpt>
      <trkpt lat="47.20548" lon="-1.56323">
        <ele>36</ele>
        <time>2014-03-06T17:31:33Z</time>
      </trkpt>
      <trkpt lat="47.20559" lon="-1.56337">
        <ele>35</ele>
        <time>2014-03-06T17:31:35Z</time>
      </trkpt>
      <trkpt lat="47.20585" lon="-1.56377">
        <ele>32</ele>
        <time>2014-03-06T17:31:39Z</time>
      </trkpt>
      <trkpt lat="47.20643" lon="-1.56416">
        <ele>35</ele>
        <time>2014-03-06T17:31:46Z</time>
      </trkpt>
      <trkpt lat="47.20657" lon="-1.56425">
        <ele>40</ele>
        <time>2014-03-06T17:31:49Z</time>
      </trkpt>
      <trkpt lat="47.20679" lon="-1.5645">
        <ele>30</ele>
        <time>2014-03-06T17:31:53Z</time>
      </trkpt>
      <trkpt lat="47.20709" lon="-1.56477">
        <ele>29</ele>
        <time>2014-03-06T17:31:58Z</time>
      </trkpt>
      <trkpt lat="47.2073" lon="-1.56496">
        <ele>25</ele>
        <time>2014-03-06T17:32:02Z</time>
      </trkpt>
      <trkpt lat="47.20736" lon="-1.56498">
        <ele>24</ele>
        <time>2014-03-06T17:32:03Z</time>
      </trkpt>
      <trkpt lat="47.20765" lon="-1.56523">
        <ele>25</ele>
        <time>2014-03-06T17:32:09Z</time>
      </trkpt>
      <trkpt lat="47.20788" lon="-1.56546">
        <ele>25</ele>
        <time>2014-03-06T17:32:13Z</time>
      </trkpt>
      <trkpt lat="47.20815" lon="-1.56571">
        <ele>26</ele>
        <time>2014-03-06T17:32:18Z</time>
      </trkpt>
      <trkpt lat="47.20828" lon="-1.56582">
        <ele>25</ele>
        <time>2014-03-06T17:32:21Z</time>
      </trkpt>
      <trkpt lat="47.20846" lon="-1.56597">
        <ele>23</ele>
        <time>2014-03-06T17:32:25Z</time>
      </trkpt>
      <trkpt lat="47.2086" lon="-1.5661">
        <ele>22</ele>
        <time>2014-03-06T17:32:28Z</time>
      </trkpt>
      <trkpt lat="47.20883" lon="-1.56634">
        <ele>19</ele>
        <time>2014-03-06T17:32:33Z</time>
      </trkpt>
      <trkpt lat="47.20908" lon="-1.5665">
        <ele>20</ele>
        <time>2014-03-06T17:32:38Z</time>
      </trkpt>
      <trkpt lat="47.20923" lon="-1.56664">
        <ele>19</ele>
        <time>2014-03-06T17:32:42Z</time>
      </trkpt>
      <trkpt lat="47.20924" lon="-1.56674">
        <ele>20</ele>
        <time>2014-03-06T17:32:44Z</time>
      </trkpt>
      <trkpt lat="47.20919" lon="-1.56709">
        <ele>18</ele>
        <time>2014-03-06T17:32:49Z</time>
      </trkpt>
      <trkpt lat="47.20906" lon="-1.56757">
        <ele>19</ele>
        <time>2014-03-06T17:32:54Z</time>
      </trkpt>
      <trkpt lat="47.20895" lon="-1.56801">
        <ele>20</ele>
        <time>2014-03-06T17:32:59Z</time>
      </trkpt>
      <trkpt lat="47.20903" lon="-1.56826">
        <ele>24</ele>
        <time>2014-03-06T17:33:03Z</time>
      </trkpt>
      <trkpt lat="47.20905" lon="-1.56832">
        <ele>24</ele>
        <time>2014-03-06T17:33:04Z</time>
      </trkpt>
      <trkpt lat="47.20913" lon="-1.56863">
        <ele>31</ele>
        <time>2014-03-06T17:33:08Z</time>
      </trkpt>
      <trkpt lat="47.20931" lon="-1.56924">
        <ele>29</ele>
        <time>2014-03-06T17:33:14Z</time>
      </trkpt>
      <trkpt lat="47.20948" lon="-1.56967">
        <ele>28</ele>
        <time>2014-03-06T17:33:18Z</time>
      </trkpt>
      <trkpt lat="47.2095" lon="-1.56986">
        <ele>27</ele>
        <time>2014-03-06T17:33:22Z</time>
      </trkpt>
      <trkpt lat="47.20952" lon="-1.57004">
        <ele>33</ele>
        <time>2014-03-06T17:33:35Z</time>
      </trkpt>
      <trkpt lat="47.20955" lon="-1.57023">
        <ele>36</ele>
        <time>2014-03-06T17:33:57Z</time>
      </trkpt>
      <trkpt lat="47.20973" lon="-1.57069">
        <ele>34</ele>
        <time>2014-03-06T17:34:02Z</time>
      </trkpt>
      <trkpt lat="47.20978" lon="-1.57083">
        <ele>34</ele>
        <time>2014-03-06T17:34:04Z</time>
      </trkpt>
      <trkpt lat="47.20994" lon="-1.57134">
        <ele>29</ele>
        <time>2014-03-06T17:34:10Z</time>
      </trkpt>
      <trkpt lat="47.20996" lon="-1.57148">
        <ele>29</ele>
        <time>2014-03-06T17:34:12Z</time>
      </trkpt>
      <trkpt lat="47.21017" lon="-1.57213">
        <ele>27</ele>
        <time>2014-03-06T17:34:20Z</time>
      </trkpt>
      <trkpt lat="47.21021" lon="-1.57232">
        <ele>28</ele>
        <time>2014-03-06T17:34:22Z</time>
      </trkpt>
      <trkpt lat="47.21035" lon="-1.57271">
        <ele>28</ele>
        <time>2014-03-06T17:34:27Z</time>
      </trkpt>
      <trkpt lat="47.21052" lon="-1.57306">
        <ele>28</ele>
        <time>2014-03-06T17:34:31Z</time>
      </trkpt>
      <trkpt lat="47.2106" lon="-1.57336">
        <ele>27</ele>
        <time>2014-03-06T17:34:34Z</time>
      </trkpt>
      <trkpt lat="47.21063" lon="-1.57368">
        <ele>28</ele>
        <time>2014-03-06T17:34:38Z</time>
      </trkpt>
      <trkpt lat="47.21075" lon="-1.57416">
        <ele>29</ele>
        <time>2014-03-06T17:34:42Z</time>
      </trkpt>
      <trkpt lat="47.21087" lon="-1.57448">
        <ele>29</ele>
        <time>2014-03-06T17:34:46Z</time>
      </trkpt>
      <trkpt lat="47.21103" lon="-1.57496">
        <ele>28</ele>
        <time>2014-03-06T17:34:52Z</time>
      </trkpt>
      <trkpt lat="47.21111" lon="-1.57511">
        <ele>28</ele>
        <time>2014-03-06T17:34:54Z</time>
      </trkpt>
      <trkpt lat="47.21118" lon="-1.57557">
        <ele>26</ele>
        <time>2014-03-06T17:35:00Z</time>
      </trkpt>
      <trkpt lat="47.21133" lon="-1.57582">
        <ele>29</ele>
        <time>2014-03-06T17:35:04Z</time>
      </trkpt>
      <trkpt lat="47.21158" lon="-1.57588">
        <ele>25</ele>
        <time>2014-03-06T17:35:08Z</time>
      </trkpt>
      <trkpt lat="47.21173" lon="-1.57609">
        <ele>25</ele>
        <time>2014-03-06T17:35:11Z</time>
      </trkpt>
      <trkpt lat="47.21171" lon="-1.57661">
        <ele>26</ele>
        <time>2014-03-06T17:35:17Z</time>
      </trkpt>
      <trkpt lat="47.21163" lon="-1.57685">
        <ele>26</ele>
        <time>2014-03-06T17:35:20Z</time>
      </trkpt>
      <trkpt lat="47.21162" lon="-1.57708">
        <ele>26</ele>
        <time>2014-03-06T17:35:23Z</time>
      </trkpt>
      <trkpt lat="47.21165" lon="-1.57722">
        <ele>27</ele>
        <time>2014-03-06T17:35:26Z</time>
      </trkpt>
      <trkpt lat="47.21174" lon="-1.5774">
        <ele>29</ele>
        <time>2014-03-06T17:35:30Z</time>
      </trkpt>
      <trkpt lat="47.21181" lon="-1.57788">
        <ele>31</ele>
        <time>2014-03-06T17:35:36Z</time>
      </trkpt>
      <trkpt lat="47.21194" lon="-1.57814">
        <ele>33</ele>
        <time>2014-03-06T17:35:41Z</time>
      </trkpt>
      <trkpt lat="47.21197" lon="-1.57832">
        <ele>35</ele>
        <time>2014-03-06T17:35:45Z</time>
      </trkpt>
      <trkpt lat="47.21212" lon="-1.57874">
        <ele>39</ele>
        <time>2014-03-06T17:35:51Z</time>
      </trkpt>
      <trkpt lat="47.21217" lon="-1.57902">
        <ele>40</ele>
        <time>2014-03-06T17:35:54Z</time>
      </trkpt>
      <trkpt lat="47.21229" lon="-1.57933">
        <ele>43</ele>
        <time>2014-03-06T17:35:59Z</time>
      </trkpt>
      <trkpt lat="47.21241" lon="-1.57963">
        <ele>40</ele>
        <time>2014-03-06T17:36:03Z</time>
      </trkpt>
      <trkpt lat="47.21249" lon="-1.57986">
        <ele>41</ele>
        <time>2014-03-06T17:36:07Z</time>
      </trkpt>
      <trkpt lat="47.21252" lon="-1.58011">
        <ele>45</ele>
        <time>2014-03-06T17:36:11Z</time>
      </trkpt>
      <trkpt lat="47.21259" lon="-1.58039">
        <ele>42</ele>
        <time>2014-03-06T17:36:15Z</time>
      </trkpt>
      <trkpt lat="47.21262" lon="-1.58057">
        <ele>45</ele>
        <time>2014-03-06T17:36:19Z</time>
      </trkpt>
      <trkpt lat="47.21269" lon="-1.58092">
        <ele>52</ele>
        <time>2014-03-06T17:36:24Z</time>
      </trkpt>
      <trkpt lat="47.2127" lon="-1.58106">
        <ele>53</ele>
        <time>2014-03-06T17:36:26Z</time>
      </trkpt>
      <trkpt lat="47.21288" lon="-1.58157">
        <ele>51</ele>
        <time>2014-03-06T17:36:32Z</time>
      </trkpt>
      <trkpt lat="47.21294" lon="-1.58185">
        <ele>54</ele>
        <time>2014-03-06T17:36:37Z</time>
      </trkpt>
      <trkpt lat="47.21301" lon="-1.58206">
        <ele>57</ele>
        <time>2014-03-06T17:36:40Z</time>
      </trkpt>
      <trkpt lat="47.2131" lon="-1.58234">
        <ele>57</ele>
        <time>2014-03-06T17:36:44Z</time>
      </trkpt>
      <trkpt lat="47.21314" lon="-1.58257">
        <ele>58</ele>
        <time>2014-03-06T17:36:48Z</time>
      </trkpt>
      <trkpt lat="47.21322" lon="-1.58284">
        <ele>60</ele>
        <time>2014-03-06T17:36:52Z</time>
      </trkpt>
      <trkpt lat="47.21327" lon="-1.58309">
        <ele>63</ele>
        <time>2014-03-06T17:36:56Z</time>
      </trkpt>
      <trkpt lat="47.21333" lon="-1.58318">
        <ele>65</ele>
        <time>2014-03-06T17:36:58Z</time>
      </trkpt>
      <trkpt lat="47.21347" lon="-1.58363">
        <ele>66</ele>
        <time>2014-03-06T17:37:04Z</time>
      </trkpt>
      <trkpt lat="47.21353" lon="-1.58393">
        <ele>64</ele>
        <time>2014-03-06T17:37:08Z</time>
      </trkpt>
      <trkpt lat="47.21363" lon="-1.58431">
        <ele>63</ele>
        <time>2014-03-06T17:37:13Z</time>
      </trkpt>
      <trkpt lat="47.21368" lon="-1.58454">
        <ele>64</ele>
        <time>2014-03-06T17:37:16Z</time>
      </trkpt>
      <trkpt lat="47.21382" lon="-1.58489">
        <ele>62</ele>
        <time>2014-03-06T17:37:20Z</time>
      </trkpt>
      <trkpt lat="47.21392" lon="-1.58515">
        <ele>60</ele>
        <time>2014-03-06T17:37:24Z</time>
      </trkpt>
      <trkpt lat="47.21396" lon="-1.58531">
        <ele>58</ele>
        <time>2014-03-06T17:37:28Z</time>
      </trkpt>
      <trkpt lat="47.214" lon="-1.58548">
        <ele>63</ele>
        <time>2014-03-06T17:37:35Z</time>
      </trkpt>
      <trkpt lat="47.21401" lon="-1.58565">
        <ele>66</ele>
        <time>2014-03-06T17:37:39Z</time>
      </trkpt>
      <trkpt lat="47.21405" lon="-1.58574">
        <ele>65</ele>
        <time>2014-03-06T17:37:41Z</time>
      </trkpt>
      <trkpt lat="47.21407" lon="-1.58611">
        <ele>69</ele>
        <time>2014-03-06T17:37:46Z</time>
      </trkpt>
      <trkpt lat="47.21405" lon="-1.58695">
        <ele>65</ele>
        <time>2014-03-06T17:37:53Z</time>
      </trkpt>
      <trkpt lat="47.21404" lon="-1.58731">
        <ele>60</ele>
        <time>2014-03-06T17:37:56Z</time>
      </trkpt>
      <trkpt lat="47.21403" lon="-1.58775">
        <ele>55</ele>
        <time>2014-03-06T17:38:00Z</time>
      </trkpt>
      <trkpt lat="47.21398" lon="-1.58818">
        <ele>55</ele>
        <time>2014-03-06T17:38:04Z</time>
      </trkpt>
      <trkpt lat="47.21391" lon="-1.58861">
        <ele>56</ele>
        <time>2014-03-06T17:38:08Z</time>
      </trkpt>
      <trkpt lat="47.21383" lon="-1.58896">
        <ele>56</ele>
        <time>2014-03-06T17:38:12Z</time>
      </trkpt>
      <trkpt lat="47.21373" lon="-1.58941">
        <ele>55</ele>
        <time>2014-03-06T17:38:17Z</time>
      </trkpt>
      <trkpt lat="47.21372" lon="-1.58974">
        <ele>55</ele>
        <time>2014-03-06T17:38:20Z</time>
      </trkpt>
      <trkpt lat="47.2137" lon="-1.59018">
        <ele>54</ele>
        <time>2014-03-06T17:38:24Z</time>
      </trkpt>
      <trkpt lat="47.21373" lon="-1.59059">
        <ele>54</ele>
        <time>2014-03-06T17:38:28Z</time>
      </trkpt>
      <trkpt lat="47.21376" lon="-1.59101">
        <ele>54</ele>
        <time>2014-03-06T17:38:32Z</time>
      </trkpt>
      <trkpt lat="47.21378" lon="-1.59141">
        <ele>55</ele>
        <time>2014-03-06T17:38:36Z</time>
      </trkpt>
      <trkpt lat="47.2138" lon="-1.59184">
        <ele>56</ele>
        <time>2014-03-06T17:38:40Z</time>
      </trkpt>
      <trkpt lat="47.21385" lon="-1.59236">
        <ele>56</ele>
        <time>2014-03-06T17:38:45Z</time>
      </trkpt>
      <trkpt lat="47.21383" lon="-1.59266">
        <ele>57</ele>
        <time>2014-03-06T17:38:48Z</time>
      </trkpt>
      <trkpt lat="47.21381" lon="-1.59307">
        <ele>59</ele>
        <time>2014-03-06T17:38:52Z</time>
      </trkpt>
      <trkpt lat="47.21381" lon="-1.59338">
        <ele>58</ele>
        <time>2014-03-06T17:38:55Z</time>
      </trkpt>
      <trkpt lat="47.21381" lon="-1.59388">
        <ele>59</ele>
        <time>2014-03-06T17:39:00Z</time>
      </trkpt>
      <trkpt lat="47.21383" lon="-1.59426">
        <ele>58</ele>
        <time>2014-03-06T17:39:04Z</time>
      </trkpt>
      <trkpt lat="47.21376" lon="-1.59469">
        <ele>57</ele>
        <time>2014-03-06T17:39:08Z</time>
      </trkpt>
      <trkpt lat="47.21369" lon="-1.59508">
        <ele>57</ele>
        <time>2014-03-06T17:39:12Z</time>
      </trkpt>
      <trkpt lat="47.21361" lon="-1.59548">
        <ele>57</ele>
        <time>2014-03-06T17:39:16Z</time>
      </trkpt>
      <trkpt lat="47.21354" lon="-1.59588">
        <ele>63</ele>
        <time>2014-03-06T17:39:20Z</time>
      </trkpt>
      <trkpt lat="47.21347" lon="-1.59632">
        <ele>63</ele>
        <time>2014-03-06T17:39:24Z</time>
      </trkpt>
      <trkpt lat="47.21342" lon="-1.59657">
        <ele>61</ele>
        <time>2014-03-06T17:39:28Z</time>
      </trkpt>
      <trkpt lat="47.21334" lon="-1.59688">
        <ele>62</ele>
        <time>2014-03-06T17:39:32Z</time>
      </trkpt>
      <trkpt lat="47.21328" lon="-1.5972">
        <ele>63</ele>
        <time>2014-03-06T17:39:36Z</time>
      </trkpt>
      <trkpt lat="47.21325" lon="-1.59754">
        <ele>64</ele>
        <time>2014-03-06T17:39:40Z</time>
      </trkpt>
      <trkpt lat="47.21323" lon="-1.59792">
        <ele>61</ele>
        <time>2014-03-06T17:39:44Z</time>
      </trkpt>
      <trkpt lat="47.21322" lon="-1.59827">
        <ele>62</ele>
        <time>2014-03-06T17:39:48Z</time>
      </trkpt>
      <trkpt lat="47.21324" lon="-1.59866">
        <ele>61</ele>
        <time>2014-03-06T17:39:52Z</time>
      </trkpt>
      <trkpt lat="47.21325" lon="-1.59885">
        <ele>60</ele>
        <time>2014-03-06T17:39:54Z</time>
      </trkpt>
      <trkpt lat="47.21327" lon="-1.59943">
        <ele>59</ele>
        <time>2014-03-06T17:40:00Z</time>
      </trkpt>
      <trkpt lat="47.2133" lon="-1.59981">
        <ele>58</ele>
        <time>2014-03-06T17:40:04Z</time>
      </trkpt>
      <trkpt lat="47.21332" lon="-1.60008">
        <ele>58</ele>
        <time>2014-03-06T17:40:07Z</time>
      </trkpt>
      <trkpt lat="47.21333" lon="-1.60046">
        <ele>58</ele>
        <time>2014-03-06T17:40:12Z</time>
      </trkpt>
      <trkpt lat="47.21335" lon="-1.60076">
        <ele>59</ele>
        <time>2014-03-06T17:40:16Z</time>
      </trkpt>
      <trkpt lat="47.21336" lon="-1.60117">
        <ele>61</ele>
        <time>2014-03-06T17:40:21Z</time>
      </trkpt>
      <trkpt lat="47.21338" lon="-1.60159">
        <ele>65</ele>
        <time>2014-03-06T17:40:25Z</time>
      </trkpt>
      <trkpt lat="47.21338" lon="-1.60202">
        <ele>67</ele>
        <time>2014-03-06T17:40:29Z</time>
      </trkpt>
      <trkpt lat="47.21341" lon="-1.60245">
        <ele>63</ele>
        <time>2014-03-06T17:40:33Z</time>
      </trkpt>
      <trkpt lat="47.21345" lon="-1.60284">
        <ele>63</ele>
        <time>2014-03-06T17:40:37Z</time>
      </trkpt>
      <trkpt lat="47.21347" lon="-1.60328">
        <ele>63</ele>
        <time>2014-03-06T17:40:41Z</time>
      </trkpt>
      <trkpt lat="47.21351" lon="-1.6036">
        <ele>63</ele>
        <time>2014-03-06T17:40:44Z</time>
      </trkpt>
      <trkpt lat="47.21362" lon="-1.60425">
        <ele>61</ele>
        <time>2014-03-06T17:40:50Z</time>
      </trkpt>
      <trkpt lat="47.21368" lon="-1.60458">
        <ele>60</ele>
        <time>2014-03-06T17:40:53Z</time>
      </trkpt>
      <trkpt lat="47.2138" lon="-1.60516">
        <ele>61</ele>
        <time>2014-03-06T17:40:58Z</time>
      </trkpt>
      <trkpt lat="47.21386" lon="-1.60547">
        <ele>61</ele>
        <time>2014-03-06T17:41:01Z</time>
      </trkpt>
      <trkpt lat="47.21391" lon="-1.60587">
        <ele>60</ele>
        <time>2014-03-06T17:41:05Z</time>
      </trkpt>
      <trkpt lat="47.21394" lon="-1.60609">
        <ele>59</ele>
        <time>2014-03-06T17:41:07Z</time>
      </trkpt>
      <trkpt lat="47.21406" lon="-1.60667">
        <ele>56</ele>
        <time>2014-03-06T17:41:13Z</time>
      </trkpt>
      <trkpt lat="47.21413" lon="-1.60689">
        <ele>55</ele>
        <time>2014-03-06T17:41:17Z</time>
      </trkpt>
      <trkpt lat="47.21424" lon="-1.60706">
        <ele>55</ele>
        <time>2014-03-06T17:41:22Z</time>
      </trkpt>
      <trkpt lat="47.21429" lon="-1.60738">
        <ele>54</ele>
        <time>2014-03-06T17:41:26Z</time>
      </trkpt>
      <trkpt lat="47.21439" lon="-1.60768">
        <ele>56</ele>
        <time>2014-03-06T17:41:30Z</time>
      </trkpt>
      <trkpt lat="47.21449" lon="-1.60778">
        <ele>58</ele>
        <time>2014-03-06T17:41:32Z</time>
      </trkpt>
      <trkpt lat="47.2149" lon="-1.60841">
        <ele>59</ele>
        <time>2014-03-06T17:41:39Z</time>
      </trkpt>
      <trkpt lat="47.21505" lon="-1.60861">
        <ele>59</ele>
        <time>2014-03-06T17:41:42Z</time>
      </trkpt>
      <trkpt lat="47.21529" lon="-1.60901">
        <ele>59</ele>
        <time>2014-03-06T17:41:47Z</time>
      </trkpt>
      <trkpt lat="47.21543" lon="-1.60923">
        <ele>60</ele>
        <time>2014-03-06T17:41:50Z</time>
      </trkpt>
      <trkpt lat="47.21563" lon="-1.60953">
        <ele>60</ele>
        <time>2014-03-06T17:41:54Z</time>
      </trkpt>
      <trkpt lat="47.21583" lon="-1.60982">
        <ele>59</ele>
        <time>2014-03-06T17:41:58Z</time>
      </trkpt>
      <trkpt lat="47.21592" lon="-1.60999">
        <ele>58</ele>
        <time>2014-03-06T17:42:00Z</time>
      </trkpt>
      <trkpt lat="47.21613" lon="-1.6103">
        <ele>59</ele>
        <time>2014-03-06T17:42:05Z</time>
      </trkpt>
      <trkpt lat="47.21638" lon="-1.61063">
        <ele>56</ele>
        <time>2014-03-06T17:42:09Z</time>
      </trkpt>
      <trkpt lat="47.21651" lon="-1.61083">
        <ele>56</ele>
        <time>2014-03-06T17:42:12Z</time>
      </trkpt>
      <trkpt lat="47.2167" lon="-1.61112">
        <ele>56</ele>
        <time>2014-03-06T17:42:16Z</time>
      </trkpt>
      <trkpt lat="47.217" lon="-1.61165">
        <ele>58</ele>
        <time>2014-03-06T17:42:22Z</time>
      </trkpt>
      <trkpt lat="47.21715" lon="-1.61199">
        <ele>58</ele>
        <time>2014-03-06T17:42:26Z</time>
      </trkpt>
      <trkpt lat="47.21732" lon="-1.61218">
        <ele>59</ele>
        <time>2014-03-06T17:42:29Z</time>
      </trkpt>
      <trkpt lat="47.21746" lon="-1.61272">
        <ele>60</ele>
        <time>2014-03-06T17:42:34Z</time>
      </trkpt>
      <trkpt lat="47.21761" lon="-1.61316">
        <ele>61</ele>
        <time>2014-03-06T17:42:38Z</time>
      </trkpt>
      <trkpt lat="47.21765" lon="-1.61333">
        <ele>63</ele>
        <time>2014-03-06T17:42:40Z</time>
      </trkpt>
      <trkpt lat="47.21774" lon="-1.61371">
        <ele>65</ele>
        <time>2014-03-06T17:42:44Z</time>
      </trkpt>
      <trkpt lat="47.21789" lon="-1.61437">
        <ele>61</ele>
        <time>2014-03-06T17:42:51Z</time>
      </trkpt>
      <trkpt lat="47.21796" lon="-1.61456">
        <ele>64</ele>
        <time>2014-03-06T17:42:54Z</time>
      </trkpt>
      <trkpt lat="47.21798" lon="-1.61474">
        <ele>64</ele>
        <time>2014-03-06T17:42:56Z</time>
      </trkpt>
      <trkpt lat="47.21808" lon="-1.61527">
        <ele>62</ele>
        <time>2014-03-06T17:43:01Z</time>
      </trkpt>
      <trkpt lat="47.21821" lon="-1.61603">
        <ele>62</ele>
        <time>2014-03-06T17:43:07Z</time>
      </trkpt>
      <trkpt lat="47.2183" lon="-1.61641">
        <ele>58</ele>
        <time>2014-03-06T17:43:10Z</time>
      </trkpt>
      <trkpt lat="47.21834" lon="-1.61663">
        <ele>58</ele>
        <time>2014-03-06T17:43:12Z</time>
      </trkpt>
      <trkpt lat="47.21851" lon="-1.61737">
        <ele>55</ele>
        <time>2014-03-06T17:43:18Z</time>
      </trkpt>
      <trkpt lat="47.21854" lon="-1.61767">
        <ele>53</ele>
        <time>2014-03-06T17:43:20Z</time>
      </trkpt>
      <trkpt lat="47.21874" lon="-1.61848">
        <ele>53</ele>
        <time>2014-03-06T17:43:26Z</time>
      </trkpt>
      <trkpt lat="47.21888" lon="-1.61916">
        <ele>55</ele>
        <time>2014-03-06T17:43:31Z</time>
      </trkpt>
      <trkpt lat="47.21903" lon="-1.6197">
        <ele>54</ele>
        <time>2014-03-06T17:43:35Z</time>
      </trkpt>
      <trkpt lat="47.21906" lon="-1.61982">
        <ele>54</ele>
        <time>2014-03-06T17:43:36Z</time>
      </trkpt>
      <trkpt lat="47.21922" lon="-1.62078">
        <ele>51</ele>
        <time>2014-03-06T17:43:43Z</time>
      </trkpt>
      <trkpt lat="47.21926" lon="-1.62101">
        <ele>52</ele>
        <time>2014-03-06T17:43:45Z</time>
      </trkpt>
      <trkpt lat="47.2194" lon="-1.62156">
        <ele>52</ele>
        <time>2014-03-06T17:43:50Z</time>
      </trkpt>
      <trkpt lat="47.21947" lon="-1.62204">
        <ele>52</ele>
        <time>2014-03-06T17:43:54Z</time>
      </trkpt>
      <trkpt lat="47.21951" lon="-1.62226">
        <ele>53</ele>
        <time>2014-03-06T17:43:56Z</time>
      </trkpt>
      <trkpt lat="47.21966" lon="-1.62296">
        <ele>55</ele>
        <time>2014-03-06T17:44:02Z</time>
      </trkpt>
      <trkpt lat="47.21975" lon="-1.62338">
        <ele>52</ele>
        <time>2014-03-06T17:44:06Z</time>
      </trkpt>
      <trkpt lat="47.21984" lon="-1.62369">
        <ele>54</ele>
        <time>2014-03-06T17:44:12Z</time>
      </trkpt>
      <trkpt lat="47.21988" lon="-1.62389">
        <ele>54</ele>
        <time>2014-03-06T17:44:15Z</time>
      </trkpt>
      <trkpt lat="47.21988" lon="-1.62416">
        <ele>56</ele>
        <time>2014-03-06T17:44:18Z</time>
      </trkpt>
      <trkpt lat="47.22" lon="-1.62468">
        <ele>54</ele>
        <time>2014-03-06T17:44:24Z</time>
      </trkpt>
      <trkpt lat="47.22009" lon="-1.62516">
        <ele>53</ele>
        <time>2014-03-06T17:44:28Z</time>
      </trkpt>
      <trkpt lat="47.22015" lon="-1.62538">
        <ele>54</ele>
        <time>2014-03-06T17:44:30Z</time>
      </trkpt>
      <trkpt lat="47.22027" lon="-1.62621">
        <ele>55</ele>
        <time>2014-03-06T17:44:37Z</time>
      </trkpt>
      <trkpt lat="47.22031" lon="-1.62646">
        <ele>56</ele>
        <time>2014-03-06T17:44:39Z</time>
      </trkpt>
      <trkpt lat="47.22044" lon="-1.6269">
        <ele>54</ele>
        <time>2014-03-06T17:44:44Z</time>
      </trkpt>
      <trkpt lat="47.22053" lon="-1.62705">
        <ele>53</ele>
        <time>2014-03-06T17:44:46Z</time>
      </trkpt>
      <trkpt lat="47.22054" lon="-1.62768">
        <ele>51</ele>
        <time>2014-03-06T17:44:52Z</time>
      </trkpt>
      <trkpt lat="47.22069" lon="-1.62836">
        <ele>48</ele>
        <time>2014-03-06T17:44:58Z</time>
      </trkpt>
      <trkpt lat="47.2208" lon="-1.6288">
        <ele>49</ele>
        <time>2014-03-06T17:45:02Z</time>
      </trkpt>
      <trkpt lat="47.22089" lon="-1.62914">
        <ele>49</ele>
        <time>2014-03-06T17:45:05Z</time>
      </trkpt>
      <trkpt lat="47.22095" lon="-1.62936">
        <ele>49</ele>
        <time>2014-03-06T17:45:07Z</time>
      </trkpt>
      <trkpt lat="47.22106" lon="-1.62981">
        <ele>49</ele>
        <time>2014-03-06T17:45:11Z</time>
      </trkpt>
      <trkpt lat="47.22119" lon="-1.63036">
        <ele>53</ele>
        <time>2014-03-06T17:45:17Z</time>
      </trkpt>
      <trkpt lat="47.22129" lon="-1.63081">
        <ele>51</ele>
        <time>2014-03-06T17:45:22Z</time>
      </trkpt>
      <trkpt lat="47.22136" lon="-1.6311">
        <ele>52</ele>
        <time>2014-03-06T17:45:25Z</time>
      </trkpt>
      <trkpt lat="47.2214" lon="-1.63159">
        <ele>50</ele>
        <time>2014-03-06T17:45:30Z</time>
      </trkpt>
      <trkpt lat="47.22143" lon="-1.63169">
        <ele>50</ele>
        <time>2014-03-06T17:45:31Z</time>
      </trkpt>
      <trkpt lat="47.22151" lon="-1.63228">
        <ele>52</ele>
        <time>2014-03-06T17:45:37Z</time>
      </trkpt>
      <trkpt lat="47.22154" lon="-1.63249">
        <ele>51</ele>
        <time>2014-03-06T17:45:39Z</time>
      </trkpt>
      <trkpt lat="47.22165" lon="-1.63319">
        <ele>52</ele>
        <time>2014-03-06T17:45:47Z</time>
      </trkpt>
      <trkpt lat="47.22171" lon="-1.63348">
        <ele>52</ele>
        <time>2014-03-06T17:45:50Z</time>
      </trkpt>
      <trkpt lat="47.22171" lon="-1.63379">
        <ele>52</ele>
        <time>2014-03-06T17:45:54Z</time>
      </trkpt>
      <trkpt lat="47.22178" lon="-1.63425">
        <ele>52</ele>
        <time>2014-03-06T17:45:58Z</time>
      </trkpt>
      <trkpt lat="47.22184" lon="-1.63463">
        <ele>52</ele>
        <time>2014-03-06T17:46:02Z</time>
      </trkpt>
      <trkpt lat="47.2219" lon="-1.63505">
        <ele>50</ele>
        <time>2014-03-06T17:46:06Z</time>
      </trkpt>
      <trkpt lat="47.22193" lon="-1.63541">
        <ele>53</ele>
        <time>2014-03-06T17:46:10Z</time>
      </trkpt>
      <trkpt lat="47.22196" lon="-1.63559">
        <ele>54</ele>
        <time>2014-03-06T17:46:12Z</time>
      </trkpt>
      <trkpt lat="47.22199" lon="-1.63599">
        <ele>58</ele>
        <time>2014-03-06T17:46:17Z</time>
      </trkpt>
      <trkpt lat="47.22203" lon="-1.63633">
        <ele>59</ele>
        <time>2014-03-06T17:46:21Z</time>
      </trkpt>
      <trkpt lat="47.22203" lon="-1.63662">
        <ele>60</ele>
        <time>2014-03-06T17:46:25Z</time>
      </trkpt>
      <trkpt lat="47.22211" lon="-1.63697">
        <ele>59</ele>
        <time>2014-03-06T17:46:30Z</time>
      </trkpt>
      <trkpt lat="47.22222" lon="-1.63736">
        <ele>59</ele>
        <time>2014-03-06T17:46:35Z</time>
      </trkpt>
      <trkpt lat="47.22225" lon="-1.63768">
        <ele>56</ele>
        <time>2014-03-06T17:46:39Z</time>
      </trkpt>
      <trkpt lat="47.22225" lon="-1.63793">
        <ele>58</ele>
        <time>2014-03-06T17:46:42Z</time>
      </trkpt>
      <trkpt lat="47.22226" lon="-1.63809">
        <ele>59</ele>
        <time>2014-03-06T17:46:44Z</time>
      </trkpt>
      <trkpt lat="47.2223" lon="-1.63842">
        <ele>61</ele>
        <time>2014-03-06T17:46:48Z</time>
      </trkpt>
      <trkpt lat="47.22231" lon="-1.63896">
        <ele>60</ele>
        <time>2014-03-06T17:46:55Z</time>
      </trkpt>
      <trkpt lat="47.2223" lon="-1.63918">
        <ele>57</ele>
        <time>2014-03-06T17:46:58Z</time>
      </trkpt>
      <trkpt lat="47.22232" lon="-1.6394">
        <ele>57</ele>
        <time>2014-03-06T17:47:02Z</time>
      </trkpt>
      <trkpt lat="47.22239" lon="-1.63964">
        <ele>57</ele>
        <time>2014-03-06T17:47:06Z</time>
      </trkpt>
      <trkpt lat="47.22218" lon="-1.63978">
        <ele>56</ele>
        <time>2014-03-06T17:47:11Z</time>
      </trkpt>
      <trkpt lat="47.22185" lon="-1.6399">
        <ele>56</ele>
        <time>2014-03-06T17:47:16Z</time>
      </trkpt>
      <trkpt lat="47.22157" lon="-1.63999">
        <ele>56</ele>
        <time>2014-03-06T17:47:20Z</time>
      </trkpt>
      <trkpt lat="47.22138" lon="-1.64007">
        <ele>54</ele>
        <time>2014-03-06T17:47:23Z</time>
      </trkpt>
      <trkpt lat="47.22115" lon="-1.64018">
        <ele>55</ele>
        <time>2014-03-06T17:47:27Z</time>
      </trkpt>
      <trkpt lat="47.2209" lon="-1.64025">
        <ele>55</ele>
        <time>2014-03-06T17:47:31Z</time>
      </trkpt>
      <trkpt lat="47.22057" lon="-1.64033">
        <ele>57</ele>
        <time>2014-03-06T17:47:36Z</time>
      </trkpt>
      <trkpt lat="47.22036" lon="-1.64037">
        <ele>58</ele>
        <time>2014-03-06T17:47:39Z</time>
      </trkpt>
      <trkpt lat="47.2201" lon="-1.6404">
        <ele>59</ele>
        <time>2014-03-06T17:47:43Z</time>
      </trkpt>
      <trkpt lat="47.21977" lon="-1.64046">
        <ele>58</ele>
        <time>2014-03-06T17:47:48Z</time>
      </trkpt>
      <trkpt lat="47.21971" lon="-1.6405">
        <ele>60</ele>
        <time>2014-03-06T17:47:49Z</time>
      </trkpt>
      <trkpt lat="47.21929" lon="-1.64067">
        <ele>61</ele>
        <time>2014-03-06T17:47:55Z</time>
      </trkpt>
      <trkpt lat="47.21901" lon="-1.64088">
        <ele>59</ele>
        <time>2014-03-06T17:47:59Z</time>
      </trkpt>
      <trkpt lat="47.21874" lon="-1.64109">
        <ele>58</ele>
        <time>2014-03-06T17:48:03Z</time>
      </trkpt>
      <trkpt lat="47.21852" lon="-1.64133">
        <ele>55</ele>
        <time>2014-03-06T17:48:08Z</time>
      </trkpt>
      <trkpt lat="47.21841" lon="-1.64156">
        <ele>55</ele>
        <time>2014-03-06T17:48:11Z</time>
      </trkpt>
      <trkpt lat="47.21825" lon="-1.64192">
        <ele>52</ele>
        <time>2014-03-06T17:48:15Z</time>
      </trkpt>
      <trkpt lat="47.21809" lon="-1.6423">
        <ele>51</ele>
        <time>2014-03-06T17:48:19Z</time>
      </trkpt>
      <trkpt lat="47.21793" lon="-1.64269">
        <ele>50</ele>
        <time>2014-03-06T17:48:23Z</time>
      </trkpt>
      <trkpt lat="47.21778" lon="-1.64307">
        <ele>48</ele>
        <time>2014-03-06T17:48:27Z</time>
      </trkpt>
      <trkpt lat="47.21763" lon="-1.64342">
        <ele>48</ele>
        <time>2014-03-06T17:48:31Z</time>
      </trkpt>
      <trkpt lat="47.2175" lon="-1.64376">
        <ele>47</ele>
        <time>2014-03-06T17:48:35Z</time>
      </trkpt>
      <trkpt lat="47.21749" lon="-1.64414">
        <ele>47</ele>
        <time>2014-03-06T17:48:39Z</time>
      </trkpt>
      <trkpt lat="47.21763" lon="-1.64441">
        <ele>48</ele>
        <time>2014-03-06T17:48:43Z</time>
      </trkpt>
      <trkpt lat="47.2178" lon="-1.64479">
        <ele>48</ele>
        <time>2014-03-06T17:48:46Z</time>
      </trkpt>
      <trkpt lat="47.21799" lon="-1.64529">
        <ele>48</ele>
        <time>2014-03-06T17:48:51Z</time>
      </trkpt>
      <trkpt lat="47.21812" lon="-1.64571">
        <ele>46</ele>
        <time>2014-03-06T17:48:55Z</time>
      </trkpt>
      <trkpt lat="47.21823" lon="-1.64611">
        <ele>49</ele>
        <time>2014-03-06T17:48:59Z</time>
      </trkpt>
      <trkpt lat="47.2183" lon="-1.64645">
        <ele>51</ele>
        <time>2014-03-06T17:49:02Z</time>
      </trkpt>
      <trkpt lat="47.21833" lon="-1.64682">
        <ele>52</ele>
        <time>2014-03-06T17:49:05Z</time>
      </trkpt>
      <trkpt lat="47.21846" lon="-1.6475">
        <ele>52</ele>
        <time>2014-03-06T17:49:11Z</time>
      </trkpt>
      <trkpt lat="47.21853" lon="-1.64794">
        <ele>49</ele>
        <time>2014-03-06T17:49:15Z</time>
      </trkpt>
      <trkpt lat="47.2186" lon="-1.6484">
        <ele>49</ele>
        <time>2014-03-06T17:49:19Z</time>
      </trkpt>
      <trkpt lat="47.21867" lon="-1.64884">
        <ele>48</ele>
        <time>2014-03-06T17:49:23Z</time>
      </trkpt>
      <trkpt lat="47.21872" lon="-1.64913">
        <ele>48</ele>
        <time>2014-03-06T17:49:25Z</time>
      </trkpt>
      <trkpt lat="47.21879" lon="-1.64961">
        <ele>46</ele>
        <time>2014-03-06T17:49:29Z</time>
      </trkpt>
      <trkpt lat="47.21888" lon="-1.65031">
        <ele>49</ele>
        <time>2014-03-06T17:49:35Z</time>
      </trkpt>
      <trkpt lat="47.21898" lon="-1.65078">
        <ele>47</ele>
        <time>2014-03-06T17:49:39Z</time>
      </trkpt>
      <trkpt lat="47.21902" lon="-1.65101">
        <ele>49</ele>
        <time>2014-03-06T17:49:41Z</time>
      </trkpt>
      <trkpt lat="47.21913" lon="-1.65176">
        <ele>47</ele>
        <time>2014-03-06T17:49:48Z</time>
      </trkpt>
      <trkpt lat="47.21924" lon="-1.65227">
        <ele>49</ele>
        <time>2014-03-06T17:49:52Z</time>
      </trkpt>
      <trkpt lat="47.21929" lon="-1.65253">
        <ele>52</ele>
        <time>2014-03-06T17:49:54Z</time>
      </trkpt>
      <trkpt lat="47.21946" lon="-1.65321">
        <ele>50</ele>
        <time>2014-03-06T17:50:01Z</time>
      </trkpt>
      <trkpt lat="47.21954" lon="-1.65356">
        <ele>49</ele>
        <time>2014-03-06T17:50:03Z</time>
      </trkpt>
      <trkpt lat="47.21964" lon="-1.65386">
        <ele>47</ele>
        <time>2014-03-06T17:50:07Z</time>
      </trkpt>
      <trkpt lat="47.21978" lon="-1.65446">
        <ele>47</ele>
        <time>2014-03-06T17:50:12Z</time>
      </trkpt>
      <trkpt lat="47.21987" lon="-1.65488">
        <ele>47</ele>
        <time>2014-03-06T17:50:16Z</time>
      </trkpt>
      <trkpt lat="47.22" lon="-1.65516">
        <ele>45</ele>
        <time>2014-03-06T17:50:20Z</time>
      </trkpt>
      <trkpt lat="47.22025" lon="-1.65541">
        <ele>46</ele>
        <time>2014-03-06T17:50:25Z</time>
      </trkpt>
      <trkpt lat="47.22025" lon="-1.65565">
        <ele>44</ele>
        <time>2014-03-06T17:50:27Z</time>
      </trkpt>
      <trkpt lat="47.22004" lon="-1.65584">
        <ele>44</ele>
        <time>2014-03-06T17:50:31Z</time>
      </trkpt>
      <trkpt lat="47.21973" lon="-1.65607">
        <ele>42</ele>
        <time>2014-03-06T17:50:36Z</time>
      </trkpt>
      <trkpt lat="47.21949" lon="-1.65632">
        <ele>41</ele>
        <time>2014-03-06T17:50:40Z</time>
      </trkpt>
      <trkpt lat="47.21924" lon="-1.65659">
        <ele>41</ele>
        <time>2014-03-06T17:50:44Z</time>
      </trkpt>
      <trkpt lat="47.219" lon="-1.65689">
        <ele>41</ele>
        <time>2014-03-06T17:50:48Z</time>
      </trkpt>
      <trkpt lat="47.21875" lon="-1.65718">
        <ele>41</ele>
        <time>2014-03-06T17:50:52Z</time>
      </trkpt>
      <trkpt lat="47.2185" lon="-1.65748">
        <ele>41</ele>
        <time>2014-03-06T17:50:56Z</time>
      </trkpt>
      <trkpt lat="47.21824" lon="-1.65779">
        <ele>40</ele>
        <time>2014-03-06T17:51:00Z</time>
      </trkpt>
      <trkpt lat="47.21798" lon="-1.65809">
        <ele>41</ele>
        <time>2014-03-06T17:51:04Z</time>
      </trkpt>
      <trkpt lat="47.21772" lon="-1.65843">
        <ele>41</ele>
        <time>2014-03-06T17:51:08Z</time>
      </trkpt>
      <trkpt lat="47.21759" lon="-1.65861">
        <ele>41</ele>
        <time>2014-03-06T17:51:10Z</time>
      </trkpt>
      <trkpt lat="47.21716" lon="-1.65908">
        <ele>40</ele>
        <time>2014-03-06T17:51:16Z</time>
      </trkpt>
      <trkpt lat="47.21699" lon="-1.65932">
        <ele>38</ele>
        <time>2014-03-06T17:51:19Z</time>
      </trkpt>
      <trkpt lat="47.21675" lon="-1.6596">
        <ele>37</ele>
        <time>2014-03-06T17:51:22Z</time>
      </trkpt>
      <trkpt lat="47.21624" lon="-1.66026">
        <ele>33</ele>
        <time>2014-03-06T17:51:29Z</time>
      </trkpt>
      <trkpt lat="47.216" lon="-1.66059">
        <ele>32</ele>
        <time>2014-03-06T17:51:33Z</time>
      </trkpt>
      <trkpt lat="47.21564" lon="-1.661">
        <ele>30</ele>
        <time>2014-03-06T17:51:36Z</time>
      </trkpt>
      <trkpt lat="47.21525" lon="-1.66151">
        <ele>26</ele>
        <time>2014-03-06T17:51:40Z</time>
      </trkpt>
      <trkpt lat="47.21486" lon="-1.66203">
        <ele>24</ele>
        <time>2014-03-06T17:51:44Z</time>
      </trkpt>
      <trkpt lat="47.21446" lon="-1.66254">
        <ele>21</ele>
        <time>2014-03-06T17:51:48Z</time>
      </trkpt>
      <trkpt lat="47.21408" lon="-1.66303">
        <ele>19</ele>
        <time>2014-03-06T17:51:52Z</time>
      </trkpt>
      <trkpt lat="47.21367" lon="-1.6635">
        <ele>20</ele>
        <time>2014-03-06T17:51:57Z</time>
      </trkpt>
      <trkpt lat="47.2133" lon="-1.66391">
        <ele>21</ele>
        <time>2014-03-06T17:52:00Z</time>
      </trkpt>
      <trkpt lat="47.21283" lon="-1.66432">
        <ele>21</ele>
        <time>2014-03-06T17:52:05Z</time>
      </trkpt>
      <trkpt lat="47.21248" lon="-1.66463">
        <ele>22</ele>
        <time>2014-03-06T17:52:10Z</time>
      </trkpt>
      <trkpt lat="47.21218" lon="-1.66485">
        <ele>22</ele>
        <time>2014-03-06T17:52:12Z</time>
      </trkpt>
      <trkpt lat="47.21202" lon="-1.66497">
        <ele>23</ele>
        <time>2014-03-06T17:52:14Z</time>
      </trkpt>
      <trkpt lat="47.21143" lon="-1.66536">
        <ele>20</ele>
        <time>2014-03-06T17:52:20Z</time>
      </trkpt>
      <trkpt lat="47.21117" lon="-1.66551">
        <ele>20</ele>
        <time>2014-03-06T17:52:24Z</time>
      </trkpt>
      <trkpt lat="47.2109" lon="-1.66567">
        <ele>21</ele>
        <time>2014-03-06T17:52:27Z</time>
      </trkpt>
      <trkpt lat="47.21035" lon="-1.66592">
        <ele>21</ele>
        <time>2014-03-06T17:52:33Z</time>
      </trkpt>
      <trkpt lat="47.21003" lon="-1.66607">
        <ele>20</ele>
        <time>2014-03-06T17:52:37Z</time>
      </trkpt>
      <trkpt lat="47.2097" lon="-1.66619">
        <ele>21</ele>
        <time>2014-03-06T17:52:41Z</time>
      </trkpt>
      <trkpt lat="47.20943" lon="-1.66629">
        <ele>25</ele>
        <time>2014-03-06T17:52:44Z</time>
      </trkpt>
      <trkpt lat="47.20912" lon="-1.66637">
        <ele>26</ele>
        <time>2014-03-06T17:52:48Z</time>
      </trkpt>
      <trkpt lat="47.20881" lon="-1.66642">
        <ele>25</ele>
        <time>2014-03-06T17:52:52Z</time>
      </trkpt>
      <trkpt lat="47.20848" lon="-1.66649">
        <ele>25</ele>
        <time>2014-03-06T17:52:56Z</time>
      </trkpt>
      <trkpt lat="47.20816" lon="-1.66655">
        <ele>24</ele>
        <time>2014-03-06T17:53:00Z</time>
      </trkpt>
      <trkpt lat="47.20783" lon="-1.66662">
        <ele>25</ele>
        <time>2014-03-06T17:53:04Z</time>
      </trkpt>
      <trkpt lat="47.20748" lon="-1.6667">
        <ele>24</ele>
        <time>2014-03-06T17:53:08Z</time>
      </trkpt>
      <trkpt lat="47.20713" lon="-1.66677">
        <ele>24</ele>
        <time>2014-03-06T17:53:12Z</time>
      </trkpt>
      <trkpt lat="47.20678" lon="-1.66684">
        <ele>22</ele>
        <time>2014-03-06T17:53:16Z</time>
      </trkpt>
      <trkpt lat="47.20642" lon="-1.66691">
        <ele>19</ele>
        <time>2014-03-06T17:53:20Z</time>
      </trkpt>
      <trkpt lat="47.20623" lon="-1.66694">
        <ele>19</ele>
        <time>2014-03-06T17:53:22Z</time>
      </trkpt>
      <trkpt lat="47.20563" lon="-1.66703">
        <ele>17</ele>
        <time>2014-03-06T17:53:28Z</time>
      </trkpt>
      <trkpt lat="47.20529" lon="-1.66708">
        <ele>14</ele>
        <time>2014-03-06T17:53:31Z</time>
      </trkpt>
      <trkpt lat="47.20463" lon="-1.6671">
        <ele>13</ele>
        <time>2014-03-06T17:53:37Z</time>
      </trkpt>
      <trkpt lat="47.20419" lon="-1.6671">
        <ele>11</ele>
        <time>2014-03-06T17:53:41Z</time>
      </trkpt>
      <trkpt lat="47.20376" lon="-1.6671">
        <ele>11</ele>
        <time>2014-03-06T17:53:45Z</time>
      </trkpt>
      <trkpt lat="47.20335" lon="-1.66709">
        <ele>11</ele>
        <time>2014-03-06T17:53:49Z</time>
      </trkpt>
      <trkpt lat="47.20296" lon="-1.66711">
        <ele>11</ele>
        <time>2014-03-06T17:53:53Z</time>
      </trkpt>
      <trkpt lat="47.20258" lon="-1.66719">
        <ele>11</ele>
        <time>2014-03-06T17:53:57Z</time>
      </trkpt>
      <trkpt lat="47.20221" lon="-1.66723">
        <ele>10</ele>
        <time>2014-03-06T17:54:01Z</time>
      </trkpt>
      <trkpt lat="47.20187" lon="-1.66726">
        <ele>10</ele>
        <time>2014-03-06T17:54:05Z</time>
      </trkpt>
      <trkpt lat="47.2016" lon="-1.66742">
        <ele>11</ele>
        <time>2014-03-06T17:54:09Z</time>
      </trkpt>
      <trkpt lat="47.20145" lon="-1.66776">
        <ele>11</ele>
        <time>2014-03-06T17:54:13Z</time>
      </trkpt>
      <trkpt lat="47.20131" lon="-1.66811">
        <ele>13</ele>
        <time>2014-03-06T17:54:17Z</time>
      </trkpt>
      <trkpt lat="47.20105" lon="-1.66818">
        <ele>12</ele>
        <time>2014-03-06T17:54:21Z</time>
      </trkpt>
      <trkpt lat="47.20082" lon="-1.66831">
        <ele>12</ele>
        <time>2014-03-06T17:54:25Z</time>
      </trkpt>
      <trkpt lat="47.20067" lon="-1.6686">
        <ele>15</ele>
        <time>2014-03-06T17:54:28Z</time>
      </trkpt>
      <trkpt lat="47.2004" lon="-1.66903">
        <ele>16</ele>
        <time>2014-03-06T17:54:33Z</time>
      </trkpt>
      <trkpt lat="47.20018" lon="-1.66938">
        <ele>16</ele>
        <time>2014-03-06T17:54:37Z</time>
      </trkpt>
      <trkpt lat="47.19998" lon="-1.66972">
        <ele>16</ele>
        <time>2014-03-06T17:54:41Z</time>
      </trkpt>
      <trkpt lat="47.19981" lon="-1.67001">
        <ele>16</ele>
        <time>2014-03-06T17:54:45Z</time>
      </trkpt>
      <trkpt lat="47.19964" lon="-1.67031">
        <ele>16</ele>
        <time>2014-03-06T17:54:49Z</time>
      </trkpt>
      <trkpt lat="47.19949" lon="-1.67054">
        <ele>18</ele>
        <time>2014-03-06T17:54:53Z</time>
      </trkpt>
      <trkpt lat="47.19933" lon="-1.67074">
        <ele>18</ele>
        <time>2014-03-06T17:54:57Z</time>
      </trkpt>
      <trkpt lat="47.19934" lon="-1.67084">
        <ele>18</ele>
        <time>2014-03-06T17:54:59Z</time>
      </trkpt>
      <trkpt lat="47.19949" lon="-1.6714">
        <ele>21</ele>
        <time>2014-03-06T17:55:06Z</time>
      </trkpt>
      <trkpt lat="47.19959" lon="-1.67164">
        <ele>22</ele>
        <time>2014-03-06T17:55:10Z</time>
      </trkpt>
      <trkpt lat="47.19965" lon="-1.67202">
        <ele>24</ele>
        <time>2014-03-06T17:55:13Z</time>
      </trkpt>
      <trkpt lat="47.19965" lon="-1.67217">
        <ele>24</ele>
        <time>2014-03-06T17:55:16Z</time>
      </trkpt>
      <trkpt lat="47.19947" lon="-1.67254">
        <ele>27</ele>
        <time>2014-03-06T17:55:24Z</time>
      </trkpt>
      <trkpt lat="47.19931" lon="-1.67276">
        <ele>29</ele>
        <time>2014-03-06T17:55:28Z</time>
      </trkpt>
      <trkpt lat="47.1992" lon="-1.67282">
        <ele>27</ele>
        <time>2014-03-06T17:55:30Z</time>
      </trkpt>
      <trkpt lat="47.19885" lon="-1.673">
        <ele>24</ele>
        <time>2014-03-06T17:55:35Z</time>
      </trkpt>
      <trkpt lat="47.19868" lon="-1.67308">
        <ele>25</ele>
        <time>2014-03-06T17:55:37Z</time>
      </trkpt>
      <trkpt lat="47.19826" lon="-1.67321">
        <ele>22</ele>
        <time>2014-03-06T17:55:44Z</time>
      </trkpt>
      <trkpt lat="47.19817" lon="-1.67336">
        <ele>22</ele>
        <time>2014-03-06T17:55:51Z</time>
      </trkpt>
      <trkpt lat="47.19806" lon="-1.67344">
        <ele>17</ele>
        <time>2014-03-06T17:55:54Z</time>
      </trkpt>
    </trkseg>
  </trk>
</gpx>